UAE356 OMDB-WIII
Flight info
| Callsign | UAE356 |
|---|---|
| Flight time | N/A |
| Altitude | 38000 |
| Route | IVURO1F IVURO M428 MUNGA A777 VAXIM P307 PARAR N571 GUNIP M630 BOBAG P501 ANITO B470 BUNIK BUNIK2M |
| Aircraft | B77W/H-SDE1E2E3FGHIJ2J3J4J5M1RWXYZ/LB1D1 |
Departure
| Time | N/A |
|---|---|
| Airport | Dubai International Airport (OMDB) |
Arrival
| Time | 2026-05-06 00:08 |
|---|---|
| Airport | Soekarno-Hatta International Airport (WIII) |
| Time | Latitude | Longitude | Altitude | Speed | Heading |
|---|---|---|---|---|---|
| 2026-05-05 16:51 | 24.49665 | 58.52296 | 35554 ft | 520 kts | 109° |
| 2026-05-05 16:52 | 24.48468 | 58.56065 | 35889 ft | 519 kts | 109° |
| 2026-05-05 16:52 | 24.47274 | 58.59819 | 36037 ft | 521 kts | 109° |
| 2026-05-05 16:52 | 24.46075 | 58.63587 | 36201 ft | 522 kts | 109° |
| 2026-05-05 16:52 | 24.44888 | 58.67313 | 36420 ft | 522 kts | 110° |
| 2026-05-05 16:53 | 24.43681 | 58.71098 | 36653 ft | 522 kts | 110° |
| 2026-05-05 16:53 | 24.42484 | 58.74821 | 36839 ft | 522 kts | 111° |
| 2026-05-05 16:53 | 24.41029 | 58.78454 | 36941 ft | 522 kts | 116° |
| 2026-05-05 16:53 | 24.39460 | 58.82003 | 37093 ft | 522 kts | 117° |
| 2026-05-05 16:54 | 24.37865 | 58.85578 | 37318 ft | 521 kts | 117° |
| 2026-05-05 16:54 | 24.36275 | 58.89143 | 37545 ft | 519 kts | 117° |
| 2026-05-05 16:54 | 24.34703 | 58.92666 | 37696 ft | 519 kts | 117° |
| 2026-05-05 16:54 | 24.33111 | 58.96232 | 37784 ft | 519 kts | 117° |
| 2026-05-05 16:55 | 24.29945 | 59.03319 | 37785 ft | 520 kts | 117° |
| 2026-05-05 16:55 | 24.26782 | 59.10394 | 37781 ft | 520 kts | 117° |
| 2026-05-05 16:56 | 24.23599 | 59.17503 | 37775 ft | 520 kts | 117° |
| 2026-05-05 16:56 | 24.20419 | 59.24596 | 37776 ft | 519 kts | 117° |
| 2026-05-05 16:57 | 24.17245 | 59.31664 | 37778 ft | 519 kts | 117° |
| 2026-05-05 16:57 | 24.14055 | 59.38758 | 37785 ft | 519 kts | 117° |
| 2026-05-05 16:58 | 24.10869 | 59.45832 | 37790 ft | 519 kts | 117° |
| 2026-05-05 16:58 | 24.07682 | 59.52898 | 37797 ft | 518 kts | 116° |
| 2026-05-05 16:59 | 24.04483 | 59.59981 | 37803 ft | 519 kts | 116° |
| 2026-05-05 16:59 | 24.01300 | 59.67018 | 37798 ft | 518 kts | 117° |
| 2026-05-05 17:00 | 23.98110 | 59.74061 | 37799 ft | 517 kts | 117° |
| 2026-05-05 17:00 | 23.94920 | 59.81090 | 37795 ft | 517 kts | 117° |
| 2026-05-05 17:01 | 23.91705 | 59.88167 | 37788 ft | 517 kts | 117° |
| 2026-05-05 17:01 | 23.88517 | 59.95174 | 37787 ft | 517 kts | 117° |
| 2026-05-05 17:02 | 23.85331 | 60.02164 | 37787 ft | 517 kts | 117° |
| 2026-05-05 17:02 | 23.82123 | 60.09193 | 37788 ft | 517 kts | 117° |
| 2026-05-05 17:03 | 23.78920 | 60.16199 | 37791 ft | 517 kts | 117° |
| 2026-05-05 17:03 | 23.75709 | 60.23215 | 37793 ft | 517 kts | 117° |
| 2026-05-05 17:04 | 23.72501 | 60.30211 | 37794 ft | 516 kts | 117° |
| 2026-05-05 17:04 | 23.69305 | 60.37173 | 37796 ft | 515 kts | 117° |
| 2026-05-05 17:05 | 23.66089 | 60.44167 | 37799 ft | 516 kts | 117° |
| 2026-05-05 17:05 | 23.62873 | 60.51151 | 37801 ft | 515 kts | 116° |
| 2026-05-05 17:06 | 23.59673 | 60.58090 | 37808 ft | 514 kts | 116° |
| 2026-05-05 17:06 | 23.56469 | 60.65028 | 37812 ft | 515 kts | 117° |
| 2026-05-05 17:07 | 23.53243 | 60.72002 | 37805 ft | 514 kts | 117° |
| 2026-05-05 17:07 | 23.50032 | 60.78934 | 37805 ft | 514 kts | 117° |
| 2026-05-05 17:08 | 23.46824 | 60.85852 | 37809 ft | 514 kts | 117° |
| 2026-05-05 17:08 | 23.43599 | 60.92795 | 37814 ft | 514 kts | 117° |
| 2026-05-05 17:09 | 23.40385 | 60.99704 | 37818 ft | 514 kts | 117° |
| 2026-05-05 17:09 | 23.37159 | 61.06630 | 37818 ft | 515 kts | 117° |
| 2026-05-05 17:10 | 23.33920 | 61.13573 | 37819 ft | 515 kts | 117° |
| 2026-05-05 17:10 | 23.30696 | 61.20515 | 37824 ft | 515 kts | 116° |
| 2026-05-05 17:11 | 23.27588 | 61.27531 | 37820 ft | 514 kts | 115° |
| 2026-05-05 17:11 | 23.24490 | 61.34518 | 37821 ft | 514 kts | 115° |
| 2026-05-05 17:12 | 23.21395 | 61.41479 | 37823 ft | 513 kts | 115° |
| 2026-05-05 17:12 | 23.18277 | 61.48475 | 37825 ft | 514 kts | 115° |
| 2026-05-05 17:13 | 23.15170 | 61.55436 | 37827 ft | 513 kts | 115° |
| 2026-05-05 17:13 | 23.12073 | 61.62359 | 37829 ft | 514 kts | 115° |
| 2026-05-05 17:14 | 23.08952 | 61.69324 | 37825 ft | 513 kts | 116° |
| 2026-05-05 17:14 | 23.05827 | 61.76289 | 37833 ft | 513 kts | 116° |
| 2026-05-05 17:15 | 23.02696 | 61.83260 | 37833 ft | 513 kts | 116° |
| 2026-05-05 17:15 | 22.99590 | 61.90162 | 37842 ft | 512 kts | 116° |
| 2026-05-05 17:16 | 22.96450 | 61.97131 | 37847 ft | 512 kts | 116° |
| 2026-05-05 17:16 | 22.93328 | 62.04049 | 37843 ft | 512 kts | 116° |
| 2026-05-05 17:17 | 22.90194 | 62.10984 | 37846 ft | 512 kts | 116° |
| 2026-05-05 17:17 | 22.87068 | 62.17893 | 37837 ft | 511 kts | 115° |
| 2026-05-05 17:18 | 22.83935 | 62.24808 | 37830 ft | 512 kts | 115° |
| 2026-05-05 17:18 | 22.80807 | 62.31701 | 37832 ft | 511 kts | 115° |
| 2026-05-05 17:19 | 22.77676 | 62.38589 | 37832 ft | 512 kts | 115° |
| 2026-05-05 17:19 | 22.74532 | 62.45498 | 37834 ft | 512 kts | 115° |
| 2026-05-05 17:20 | 22.71384 | 62.52407 | 37836 ft | 512 kts | 115° |
| 2026-05-05 17:20 | 22.68219 | 62.59342 | 37837 ft | 511 kts | 115° |
| 2026-05-05 17:21 | 22.65077 | 62.66217 | 37832 ft | 510 kts | 116° |
| 2026-05-05 17:22 | 22.60363 | 62.76514 | 37834 ft | 510 kts | 116° |
| 2026-05-05 17:22 | 22.57214 | 62.83381 | 37832 ft | 510 kts | 116° |
| 2026-05-05 17:23 | 22.54066 | 62.90236 | 37835 ft | 510 kts | 116° |
| 2026-05-05 17:23 | 22.50917 | 62.97084 | 37833 ft | 511 kts | 116° |
| 2026-05-05 17:24 | 22.47754 | 63.03953 | 37830 ft | 511 kts | 116° |
| 2026-05-05 17:24 | 22.44600 | 63.10793 | 37826 ft | 511 kts | 116° |
| 2026-05-05 17:25 | 22.41492 | 63.17680 | 37828 ft | 510 kts | 115° |
| 2026-05-05 17:25 | 22.38400 | 63.24614 | 37830 ft | 510 kts | 115° |
| 2026-05-05 17:26 | 22.35331 | 63.31479 | 37837 ft | 508 kts | 115° |
| 2026-05-05 17:26 | 22.32238 | 63.38384 | 37841 ft | 509 kts | 115° |
| 2026-05-05 17:27 | 22.29155 | 63.45256 | 37840 ft | 510 kts | 115° |
| 2026-05-05 17:27 | 22.26078 | 63.52100 | 37843 ft | 510 kts | 115° |
| 2026-05-05 17:28 | 22.22985 | 63.58971 | 37846 ft | 509 kts | 115° |
| 2026-05-05 17:28 | 22.19897 | 63.65821 | 37846 ft | 510 kts | 115° |
| 2026-05-05 17:29 | 22.16783 | 63.72719 | 37843 ft | 510 kts | 115° |
| 2026-05-05 17:29 | 22.13698 | 63.79544 | 37846 ft | 509 kts | 115° |
| 2026-05-05 17:30 | 22.10590 | 63.86411 | 37847 ft | 507 kts | 115° |
| 2026-05-05 17:30 | 22.07506 | 63.93212 | 37848 ft | 507 kts | 115° |
| 2026-05-05 17:31 | 22.04405 | 64.00047 | 37848 ft | 508 kts | 115° |
| 2026-05-05 17:31 | 22.01306 | 64.06863 | 37849 ft | 509 kts | 115° |
| 2026-05-05 17:32 | 21.98192 | 64.13706 | 37850 ft | 507 kts | 115° |
| 2026-05-05 17:32 | 21.95095 | 64.20500 | 37847 ft | 508 kts | 115° |
| 2026-05-05 17:33 | 21.91981 | 64.27325 | 37842 ft | 507 kts | 115° |
| 2026-05-05 17:33 | 21.88881 | 64.34109 | 37834 ft | 507 kts | 115° |
| 2026-05-05 17:34 | 21.85772 | 64.40904 | 37837 ft | 506 kts | 115° |
| 2026-05-05 17:34 | 21.82666 | 64.47681 | 37840 ft | 506 kts | 115° |
| 2026-05-05 17:35 | 21.79553 | 64.54469 | 37841 ft | 506 kts | 115° |
| 2026-05-05 17:35 | 21.76434 | 64.61256 | 37844 ft | 506 kts | 115° |
| 2026-05-05 17:36 | 21.73322 | 64.68021 | 37841 ft | 505 kts | 116° |
| 2026-05-05 17:36 | 21.70213 | 64.74770 | 37842 ft | 504 kts | 116° |
| 2026-05-05 17:37 | 21.67103 | 64.81513 | 37844 ft | 504 kts | 115° |
| 2026-05-05 17:37 | 21.63993 | 64.88247 | 37845 ft | 504 kts | 115° |
| 2026-05-05 17:38 | 21.60878 | 64.94983 | 37842 ft | 504 kts | 115° |
| 2026-05-05 17:38 | 21.57763 | 65.01711 | 37845 ft | 502 kts | 115° |
| 2026-05-05 17:39 | 21.54659 | 65.08405 | 37847 ft | 503 kts | 116° |
| 2026-05-05 17:39 | 21.51543 | 65.15118 | 37850 ft | 502 kts | 116° |
| 2026-05-05 17:40 | 21.48436 | 65.21802 | 37860 ft | 502 kts | 116° |
| 2026-05-05 17:40 | 21.45321 | 65.28495 | 37858 ft | 502 kts | 116° |
| 2026-05-05 17:41 | 21.42210 | 65.35171 | 37861 ft | 502 kts | 116° |
| 2026-05-05 17:41 | 21.39089 | 65.41860 | 37866 ft | 502 kts | 116° |
| 2026-05-05 17:42 | 21.35982 | 65.48511 | 37866 ft | 501 kts | 116° |
| 2026-05-05 17:42 | 21.32858 | 65.55188 | 37865 ft | 501 kts | 116° |
| 2026-05-05 17:43 | 21.29739 | 65.61848 | 37865 ft | 501 kts | 116° |
| 2026-05-05 17:43 | 21.26610 | 65.68520 | 37860 ft | 501 kts | 116° |
| 2026-05-05 17:44 | 21.23474 | 65.75198 | 37863 ft | 501 kts | 116° |
| 2026-05-05 17:44 | 21.20349 | 65.81844 | 37864 ft | 500 kts | 116° |
| 2026-05-05 17:45 | 21.17224 | 65.88483 | 37862 ft | 501 kts | 116° |
| 2026-05-05 17:45 | 21.14099 | 65.95113 | 37865 ft | 499 kts | 116° |
| 2026-05-05 17:46 | 21.10984 | 66.01733 | 37867 ft | 500 kts | 115° |
| 2026-05-05 17:46 | 21.07949 | 66.08428 | 37867 ft | 499 kts | 115° |
| 2026-05-05 17:47 | 21.04917 | 66.15119 | 37869 ft | 500 kts | 115° |
| 2026-05-05 17:47 | 21.01891 | 66.21779 | 37865 ft | 499 kts | 115° |
| 2026-05-05 17:48 | 20.98860 | 66.28439 | 37858 ft | 500 kts | 115° |
| 2026-05-05 17:48 | 20.95810 | 66.35128 | 37855 ft | 500 kts | 115° |
| 2026-05-05 17:49 | 20.92763 | 66.41800 | 37855 ft | 499 kts | 115° |
| 2026-05-05 17:49 | 20.89714 | 66.48469 | 37852 ft | 500 kts | 115° |
| 2026-05-05 17:50 | 20.86679 | 66.55100 | 37849 ft | 500 kts | 115° |
| 2026-05-05 17:50 | 20.83626 | 66.61758 | 37851 ft | 499 kts | 115° |
| 2026-05-05 17:51 | 20.80563 | 66.68431 | 37850 ft | 499 kts | 115° |
| 2026-05-05 17:51 | 20.77514 | 66.75066 | 37852 ft | 499 kts | 115° |
| 2026-05-05 17:52 | 20.74460 | 66.81705 | 37864 ft | 500 kts | 115° |
| 2026-05-05 17:52 | 20.71385 | 66.88378 | 37871 ft | 500 kts | 115° |
| 2026-05-05 17:53 | 20.68329 | 66.95003 | 37873 ft | 500 kts | 115° |
| 2026-05-05 17:53 | 20.65261 | 67.01646 | 37876 ft | 500 kts | 115° |
| 2026-05-05 17:54 | 20.62191 | 67.08283 | 37878 ft | 499 kts | 115° |
| 2026-05-05 17:54 | 20.59109 | 67.14941 | 37879 ft | 500 kts | 115° |
| 2026-05-05 17:55 | 20.56033 | 67.21575 | 37877 ft | 500 kts | 115° |
| 2026-05-05 17:55 | 20.52953 | 67.28211 | 37877 ft | 500 kts | 115° |
| 2026-05-05 17:56 | 20.49867 | 67.34853 | 37878 ft | 500 kts | 115° |
| 2026-05-05 17:56 | 20.46781 | 67.41486 | 37880 ft | 500 kts | 115° |
| 2026-05-05 17:57 | 20.43698 | 67.48104 | 37880 ft | 501 kts | 115° |
| 2026-05-05 17:57 | 20.40607 | 67.54732 | 37884 ft | 500 kts | 115° |
| 2026-05-05 17:58 | 20.37506 | 67.61372 | 37881 ft | 501 kts | 115° |
| 2026-05-05 17:58 | 20.34413 | 67.67987 | 37881 ft | 500 kts | 115° |
| 2026-05-05 17:59 | 20.31327 | 67.74580 | 37881 ft | 500 kts | 115° |
| 2026-05-05 17:59 | 20.28215 | 67.81221 | 37885 ft | 500 kts | 115° |
| 2026-05-05 18:00 | 20.25106 | 67.87847 | 37885 ft | 501 kts | 115° |
| 2026-05-05 18:00 | 20.22000 | 67.94460 | 37885 ft | 501 kts | 116° |
| 2026-05-05 18:01 | 20.18892 | 68.01066 | 37884 ft | 500 kts | 116° |
| 2026-05-05 18:01 | 20.15777 | 68.07680 | 37881 ft | 500 kts | 115° |
| 2026-05-05 18:02 | 20.12661 | 68.14290 | 37884 ft | 499 kts | 115° |
| 2026-05-05 18:02 | 20.09556 | 68.20868 | 37885 ft | 499 kts | 115° |
| 2026-05-05 18:03 | 20.06441 | 68.27460 | 37885 ft | 500 kts | 116° |
| 2026-05-05 18:03 | 20.03331 | 68.34032 | 37891 ft | 499 kts | 116° |
| 2026-05-05 18:04 | 20.00209 | 68.40623 | 37891 ft | 500 kts | 116° |
| 2026-05-05 18:04 | 19.97085 | 68.47209 | 37888 ft | 500 kts | 116° |
| 2026-05-05 18:05 | 19.93940 | 68.53833 | 37893 ft | 500 kts | 116° |
| 2026-05-05 18:05 | 19.90819 | 68.60398 | 37891 ft | 500 kts | 116° |
| 2026-05-05 18:06 | 19.87686 | 68.66981 | 37886 ft | 500 kts | 116° |
| 2026-05-05 18:06 | 19.84548 | 68.73568 | 37883 ft | 501 kts | 116° |
| 2026-05-05 18:07 | 19.81402 | 68.80162 | 37873 ft | 500 kts | 116° |
| 2026-05-05 18:07 | 19.78245 | 68.86773 | 37869 ft | 501 kts | 116° |
| 2026-05-05 18:08 | 19.75090 | 68.93370 | 37864 ft | 500 kts | 116° |
| 2026-05-05 18:08 | 19.71942 | 68.99947 | 37862 ft | 500 kts | 116° |
| 2026-05-05 18:09 | 19.68795 | 69.06514 | 37868 ft | 500 kts | 116° |
| 2026-05-05 18:09 | 19.65642 | 69.13084 | 37869 ft | 500 kts | 116° |
| 2026-05-05 18:10 | 19.62478 | 69.19672 | 37872 ft | 500 kts | 116° |
| 2026-05-05 18:10 | 19.59332 | 69.26212 | 37877 ft | 500 kts | 116° |
| 2026-05-05 18:11 | 19.56158 | 69.32803 | 37875 ft | 501 kts | 116° |
| 2026-05-05 18:11 | 19.53064 | 69.39381 | 37877 ft | 501 kts | 114° |
| 2026-05-05 18:12 | 19.50043 | 69.46009 | 37876 ft | 501 kts | 115° |
| 2026-05-05 18:12 | 19.47017 | 69.52631 | 37881 ft | 500 kts | 115° |
| 2026-05-05 18:13 | 19.43992 | 69.59232 | 37881 ft | 499 kts | 115° |
| 2026-05-05 18:13 | 19.40958 | 69.65842 | 37882 ft | 500 kts | 115° |
| 2026-05-05 18:14 | 19.37917 | 69.72455 | 37877 ft | 500 kts | 115° |
| 2026-05-05 18:14 | 19.34868 | 69.79078 | 37880 ft | 500 kts | 115° |
| 2026-05-05 18:15 | 19.31820 | 69.85690 | 37879 ft | 501 kts | 115° |
| 2026-05-05 18:15 | 19.28776 | 69.92285 | 37883 ft | 501 kts | 115° |
| 2026-05-05 18:16 | 19.25722 | 69.98895 | 37884 ft | 500 kts | 115° |
| 2026-05-05 18:16 | 19.22667 | 70.05499 | 37886 ft | 500 kts | 115° |
| 2026-05-05 18:17 | 19.19618 | 70.12083 | 37884 ft | 500 kts | 115° |
| 2026-05-05 18:17 | 19.16553 | 70.18691 | 37887 ft | 499 kts | 115° |
| 2026-05-05 18:18 | 19.13496 | 70.25278 | 37886 ft | 500 kts | 115° |
| 2026-05-05 18:18 | 19.10439 | 70.31854 | 37890 ft | 500 kts | 115° |
| 2026-05-05 18:19 | 19.07389 | 70.38411 | 37887 ft | 499 kts | 115° |
| 2026-05-05 18:19 | 19.04315 | 70.45009 | 37892 ft | 499 kts | 115° |
| 2026-05-05 18:20 | 19.01268 | 70.51543 | 37891 ft | 498 kts | 115° |
| 2026-05-05 18:20 | 18.98198 | 70.58120 | 37886 ft | 498 kts | 115° |
| 2026-05-05 18:21 | 18.95133 | 70.64677 | 37877 ft | 498 kts | 115° |
| 2026-05-05 18:21 | 18.92065 | 70.71233 | 37869 ft | 500 kts | 115° |
| 2026-05-05 18:22 | 18.88994 | 70.77791 | 37866 ft | 499 kts | 115° |
| 2026-05-05 18:22 | 18.85908 | 70.84373 | 37868 ft | 499 kts | 115° |
| 2026-05-05 18:23 | 18.82841 | 70.90904 | 37868 ft | 499 kts | 115° |
| 2026-05-05 18:23 | 18.79771 | 70.97438 | 37871 ft | 498 kts | 115° |
| 2026-05-05 18:24 | 18.76685 | 71.03996 | 37870 ft | 497 kts | 115° |
| 2026-05-05 18:24 | 18.73623 | 71.10496 | 37872 ft | 496 kts | 115° |
| 2026-05-05 18:25 | 18.70546 | 71.17022 | 37870 ft | 498 kts | 115° |
| 2026-05-05 18:25 | 18.67450 | 71.23582 | 37871 ft | 499 kts | 115° |
| 2026-05-05 18:26 | 18.64382 | 71.30073 | 37875 ft | 498 kts | 115° |
| 2026-05-05 18:26 | 18.61275 | 71.36639 | 37872 ft | 499 kts | 115° |
| 2026-05-05 18:27 | 18.58187 | 71.43160 | 37873 ft | 497 kts | 115° |
| 2026-05-05 18:27 | 18.55101 | 71.49668 | 37877 ft | 498 kts | 115° |
| 2026-05-05 18:28 | 18.50474 | 71.59415 | 37880 ft | 497 kts | 115° |
| 2026-05-05 18:28 | 18.47385 | 71.65913 | 37879 ft | 497 kts | 116° |
| 2026-05-05 18:29 | 18.44286 | 71.72424 | 37876 ft | 499 kts | 116° |
| 2026-05-05 18:29 | 18.41203 | 71.78895 | 37879 ft | 497 kts | 116° |
| 2026-05-05 18:30 | 18.38094 | 71.85413 | 37881 ft | 497 kts | 116° |
| 2026-05-05 18:30 | 18.34996 | 71.91902 | 37879 ft | 496 kts | 116° |
| 2026-05-05 18:31 | 18.31899 | 71.98383 | 37880 ft | 497 kts | 116° |
| 2026-05-05 18:31 | 18.28794 | 72.04871 | 37885 ft | 497 kts | 116° |
| 2026-05-05 18:32 | 18.25674 | 72.11384 | 37888 ft | 497 kts | 116° |
| 2026-05-05 18:32 | 18.22560 | 72.17879 | 37889 ft | 498 kts | 116° |
| 2026-05-05 18:33 | 18.19455 | 72.24348 | 37890 ft | 498 kts | 116° |
| 2026-05-05 18:33 | 18.16336 | 72.30838 | 37890 ft | 497 kts | 116° |
| 2026-05-05 18:34 | 18.13224 | 72.37308 | 37890 ft | 497 kts | 116° |
| 2026-05-05 18:34 | 18.10111 | 72.43773 | 37890 ft | 497 kts | 116° |
| 2026-05-05 18:35 | 18.06991 | 72.50245 | 37889 ft | 497 kts | 116° |
| 2026-05-05 18:35 | 18.03866 | 72.56722 | 37880 ft | 496 kts | 116° |
| 2026-05-05 18:36 | 18.00760 | 72.63153 | 37871 ft | 497 kts | 116° |
| 2026-05-05 18:36 | 17.97640 | 72.69606 | 37868 ft | 496 kts | 116° |
| 2026-05-05 18:37 | 17.94494 | 72.76104 | 37869 ft | 496 kts | 116° |
| 2026-05-05 18:37 | 17.91384 | 72.82522 | 37862 ft | 497 kts | 116° |
| 2026-05-05 18:38 | 17.88246 | 72.88993 | 37869 ft | 497 kts | 116° |
| 2026-05-05 18:38 | 17.85114 | 72.95444 | 37868 ft | 496 kts | 116° |
| 2026-05-05 18:39 | 17.81999 | 73.01852 | 37874 ft | 495 kts | 116° |
| 2026-05-05 18:39 | 17.78863 | 73.08298 | 37886 ft | 496 kts | 116° |
| 2026-05-05 18:40 | 17.75756 | 73.14677 | 37897 ft | 493 kts | 117° |
| 2026-05-05 18:40 | 17.72624 | 73.21101 | 37899 ft | 494 kts | 116° |
| 2026-05-05 18:41 | 17.69488 | 73.27523 | 37911 ft | 494 kts | 116° |
| 2026-05-05 18:41 | 17.66358 | 73.33926 | 37909 ft | 494 kts | 117° |
| 2026-05-05 18:42 | 17.63250 | 73.40276 | 37916 ft | 494 kts | 117° |
| 2026-05-05 18:42 | 17.60111 | 73.46686 | 37917 ft | 493 kts | 117° |
| 2026-05-05 18:43 | 17.56981 | 73.53070 | 37918 ft | 493 kts | 117° |
| 2026-05-05 18:43 | 17.53847 | 73.59457 | 37948 ft | 493 kts | 117° |
| 2026-05-05 18:44 | 17.50717 | 73.65826 | 37973 ft | 493 kts | 117° |
| 2026-05-05 18:44 | 17.47575 | 73.72217 | 38001 ft | 493 kts | 117° |
| 2026-05-05 18:45 | 17.44447 | 73.78571 | 38029 ft | 493 kts | 117° |
| 2026-05-05 18:45 | 17.41299 | 73.84960 | 38013 ft | 493 kts | 117° |
| 2026-05-05 18:46 | 17.38167 | 73.91309 | 38015 ft | 494 kts | 117° |
| 2026-05-05 18:46 | 17.35012 | 73.97700 | 38002 ft | 494 kts | 117° |
| 2026-05-05 18:47 | 17.31856 | 74.04086 | 37996 ft | 495 kts | 117° |
| 2026-05-05 18:47 | 17.28710 | 74.10447 | 37988 ft | 494 kts | 117° |
| 2026-05-05 18:48 | 17.25552 | 74.16824 | 37988 ft | 494 kts | 117° |
| 2026-05-05 18:48 | 17.22403 | 74.23177 | 37981 ft | 493 kts | 117° |
| 2026-05-05 18:49 | 17.19233 | 74.29569 | 37978 ft | 494 kts | 117° |
| 2026-05-05 18:49 | 17.16065 | 74.35954 | 37978 ft | 495 kts | 117° |
| 2026-05-05 18:50 | 17.12893 | 74.42344 | 37979 ft | 494 kts | 117° |
| 2026-05-05 18:50 | 17.09729 | 74.48710 | 37972 ft | 494 kts | 117° |
| 2026-05-05 18:51 | 17.06574 | 74.55050 | 37970 ft | 494 kts | 117° |
| 2026-05-05 18:51 | 17.03401 | 74.61422 | 37978 ft | 495 kts | 117° |
| 2026-05-05 18:52 | 17.00218 | 74.67808 | 37972 ft | 494 kts | 117° |
| 2026-05-05 18:52 | 16.97055 | 74.74146 | 37978 ft | 494 kts | 117° |
| 2026-05-05 18:53 | 16.93877 | 74.80509 | 37971 ft | 495 kts | 117° |
| 2026-05-05 18:53 | 16.90699 | 74.86866 | 37967 ft | 494 kts | 117° |
| 2026-05-05 18:54 | 16.87533 | 74.93193 | 37959 ft | 494 kts | 117° |
| 2026-05-05 18:54 | 16.84361 | 74.99527 | 37956 ft | 493 kts | 117° |
| 2026-05-05 18:55 | 16.81164 | 75.05903 | 37952 ft | 495 kts | 117° |
| 2026-05-05 18:55 | 16.77985 | 75.12238 | 37961 ft | 495 kts | 117° |
| 2026-05-05 18:56 | 16.74805 | 75.18568 | 37968 ft | 493 kts | 117° |
| 2026-05-05 18:56 | 16.71616 | 75.24911 | 37966 ft | 494 kts | 117° |
| 2026-05-05 18:57 | 16.68431 | 75.31239 | 37967 ft | 494 kts | 117° |
| 2026-05-05 18:57 | 16.65229 | 75.37597 | 37960 ft | 494 kts | 117° |
| 2026-05-05 18:58 | 16.62051 | 75.43900 | 37956 ft | 494 kts | 117° |
| 2026-05-05 18:58 | 16.58939 | 75.50258 | 37963 ft | 493 kts | 115° |
| 2026-05-05 18:59 | 16.55983 | 75.56704 | 37951 ft | 494 kts | 115° |
| 2026-05-05 18:59 | 16.53025 | 75.63131 | 37947 ft | 493 kts | 115° |
| 2026-05-05 19:00 | 16.50055 | 75.69559 | 37949 ft | 493 kts | 115° |
| 2026-05-05 19:00 | 16.47079 | 75.75987 | 37948 ft | 493 kts | 116° |
| 2026-05-05 19:01 | 16.44106 | 75.82396 | 37941 ft | 493 kts | 116° |
| 2026-05-05 19:01 | 16.41127 | 75.88811 | 37939 ft | 493 kts | 116° |
| 2026-05-05 19:02 | 16.38138 | 75.95240 | 37934 ft | 493 kts | 116° |
| 2026-05-05 19:02 | 16.35149 | 76.01653 | 37932 ft | 493 kts | 116° |
| 2026-05-05 19:03 | 16.32130 | 76.08061 | 37931 ft | 493 kts | 116° |
| 2026-05-05 19:03 | 16.29134 | 76.14414 | 37935 ft | 492 kts | 116° |
| 2026-05-05 19:04 | 16.26129 | 76.20780 | 37939 ft | 491 kts | 116° |
| 2026-05-05 19:04 | 16.23106 | 76.27181 | 37937 ft | 492 kts | 116° |
| 2026-05-05 19:05 | 16.20092 | 76.33556 | 37933 ft | 491 kts | 116° |
| 2026-05-05 19:05 | 16.17063 | 76.39957 | 37930 ft | 492 kts | 116° |
| 2026-05-05 19:06 | 16.14046 | 76.46327 | 37932 ft | 492 kts | 116° |
| 2026-05-05 19:06 | 16.11017 | 76.52717 | 37929 ft | 492 kts | 116° |
| 2026-05-05 19:07 | 16.08006 | 76.59063 | 37932 ft | 492 kts | 116° |
| 2026-05-05 19:07 | 16.04979 | 76.65437 | 37922 ft | 491 kts | 116° |
| 2026-05-05 19:08 | 16.01954 | 76.71800 | 37908 ft | 492 kts | 116° |
| 2026-05-05 19:08 | 15.98907 | 76.78204 | 37899 ft | 492 kts | 116° |
| 2026-05-05 19:09 | 15.95849 | 76.84624 | 37893 ft | 493 kts | 116° |
| 2026-05-05 19:09 | 15.92835 | 76.90949 | 37887 ft | 491 kts | 116° |
| 2026-05-05 19:10 | 15.89794 | 76.97321 | 37885 ft | 491 kts | 116° |
| 2026-05-05 19:10 | 15.86777 | 77.03639 | 37885 ft | 491 kts | 116° |
| 2026-05-05 19:11 | 15.83731 | 77.10011 | 37886 ft | 491 kts | 116° |
| 2026-05-05 19:11 | 15.80696 | 77.16356 | 37886 ft | 491 kts | 116° |
| 2026-05-05 19:12 | 15.77675 | 77.22666 | 37887 ft | 492 kts | 116° |
| 2026-05-05 19:12 | 15.74623 | 77.29032 | 37887 ft | 490 kts | 116° |
| 2026-05-05 19:13 | 15.71566 | 77.35406 | 37882 ft | 491 kts | 116° |
| 2026-05-05 19:13 | 15.68548 | 77.41744 | 37884 ft | 490 kts | 116° |
| 2026-05-05 19:14 | 15.65544 | 77.48057 | 37882 ft | 490 kts | 116° |
| 2026-05-05 19:14 | 15.62521 | 77.54401 | 37884 ft | 490 kts | 116° |
| 2026-05-05 19:15 | 15.59506 | 77.60723 | 37885 ft | 489 kts | 116° |
| 2026-05-05 19:15 | 15.56481 | 77.67060 | 37883 ft | 489 kts | 117° |
| 2026-05-05 19:16 | 15.53470 | 77.73360 | 37881 ft | 488 kts | 117° |
| 2026-05-05 19:16 | 15.50473 | 77.79628 | 37876 ft | 488 kts | 117° |
| 2026-05-05 19:17 | 15.47433 | 77.85976 | 37874 ft | 488 kts | 117° |
| 2026-05-05 19:17 | 15.44431 | 77.92242 | 37881 ft | 488 kts | 117° |
| 2026-05-05 19:18 | 15.41402 | 77.98558 | 37886 ft | 489 kts | 117° |
| 2026-05-05 19:18 | 15.38381 | 78.04851 | 37878 ft | 487 kts | 117° |
| 2026-05-05 19:19 | 15.35360 | 78.11136 | 37868 ft | 487 kts | 117° |
| 2026-05-05 19:19 | 15.32305 | 78.17394 | 37863 ft | 487 kts | 117° |
| 2026-05-05 19:20 | 15.29261 | 78.23616 | 37852 ft | 487 kts | 117° |
| 2026-05-05 19:20 | 15.26211 | 78.29851 | 37845 ft | 487 kts | 117° |
| 2026-05-05 19:21 | 15.23147 | 78.36108 | 37840 ft | 487 kts | 117° |
| 2026-05-05 19:21 | 15.20081 | 78.42367 | 37843 ft | 488 kts | 117° |
| 2026-05-05 19:22 | 15.17016 | 78.48618 | 37840 ft | 488 kts | 117° |
| 2026-05-05 19:22 | 15.13971 | 78.54824 | 37852 ft | 487 kts | 117° |
| 2026-05-05 19:23 | 15.10887 | 78.61104 | 37858 ft | 486 kts | 117° |
| 2026-05-05 19:23 | 15.07850 | 78.67282 | 37866 ft | 486 kts | 117° |
| 2026-05-05 19:24 | 15.04776 | 78.73531 | 37875 ft | 485 kts | 117° |
| 2026-05-05 19:24 | 15.01719 | 78.79740 | 37873 ft | 486 kts | 117° |
| 2026-05-05 19:25 | 14.98661 | 78.85945 | 37860 ft | 486 kts | 117° |
| 2026-05-05 19:25 | 14.95585 | 78.92182 | 37849 ft | 487 kts | 117° |
| 2026-05-05 19:26 | 14.92516 | 78.98402 | 37842 ft | 487 kts | 117° |
| 2026-05-05 19:26 | 14.89451 | 79.04607 | 37837 ft | 487 kts | 117° |
| 2026-05-05 19:27 | 14.86352 | 79.10873 | 37838 ft | 487 kts | 117° |
| 2026-05-05 19:27 | 14.83291 | 79.17061 | 37827 ft | 486 kts | 117° |
| 2026-05-05 19:28 | 14.80206 | 79.23290 | 37821 ft | 486 kts | 117° |
| 2026-05-05 19:28 | 14.77140 | 79.29476 | 37828 ft | 486 kts | 117° |
| 2026-05-05 19:29 | 14.74065 | 79.35675 | 37833 ft | 487 kts | 117° |
| 2026-05-05 19:29 | 14.70961 | 79.41929 | 37827 ft | 487 kts | 117° |
| 2026-05-05 19:30 | 14.67876 | 79.48138 | 37824 ft | 487 kts | 117° |
| 2026-05-05 19:30 | 14.64794 | 79.54334 | 37819 ft | 487 kts | 117° |
| 2026-05-05 19:31 | 14.61706 | 79.60539 | 37817 ft | 488 kts | 117° |
| 2026-05-05 19:31 | 14.58615 | 79.66747 | 37815 ft | 487 kts | 117° |
| 2026-05-05 19:32 | 14.55524 | 79.72946 | 37814 ft | 487 kts | 117° |
| 2026-05-05 19:32 | 14.52422 | 79.79166 | 37813 ft | 487 kts | 117° |
| 2026-05-05 19:33 | 14.49320 | 79.85379 | 37813 ft | 486 kts | 117° |
| 2026-05-05 19:33 | 14.46242 | 79.91538 | 37815 ft | 486 kts | 118° |
| 2026-05-05 19:34 | 14.43135 | 79.97752 | 37819 ft | 486 kts | 118° |
| 2026-05-05 19:35 | 14.38497 | 80.07016 | 37811 ft | 486 kts | 118° |
| 2026-05-05 19:35 | 14.35394 | 80.13210 | 37816 ft | 486 kts | 118° |
| 2026-05-05 19:36 | 14.32290 | 80.19399 | 37818 ft | 487 kts | 118° |
| 2026-05-05 19:36 | 14.29191 | 80.25575 | 37819 ft | 486 kts | 118° |
| 2026-05-05 19:37 | 14.26090 | 80.31749 | 37822 ft | 485 kts | 118° |
| 2026-05-05 19:37 | 14.22994 | 80.37907 | 37822 ft | 485 kts | 118° |
| 2026-05-05 19:38 | 14.19903 | 80.44052 | 37823 ft | 484 kts | 118° |
| 2026-05-05 19:38 | 14.16808 | 80.50198 | 37825 ft | 485 kts | 118° |
| 2026-05-05 19:39 | 14.13696 | 80.56376 | 37823 ft | 485 kts | 118° |
| 2026-05-05 19:39 | 14.10594 | 80.62528 | 37823 ft | 485 kts | 118° |
| 2026-05-05 19:40 | 14.07474 | 80.68710 | 37816 ft | 486 kts | 118° |
| 2026-05-05 19:40 | 14.04373 | 80.74851 | 37813 ft | 486 kts | 118° |
| 2026-05-05 19:41 | 14.01245 | 80.81039 | 37807 ft | 486 kts | 118° |
| 2026-05-05 19:41 | 13.98196 | 80.87181 | 37802 ft | 485 kts | 117° |
| 2026-05-05 19:42 | 13.95178 | 80.93412 | 37804 ft | 485 kts | 117° |
| 2026-05-05 19:42 | 13.92174 | 80.99602 | 37803 ft | 487 kts | 117° |
| 2026-05-05 19:43 | 13.89132 | 81.05858 | 37804 ft | 487 kts | 117° |
| 2026-05-05 19:43 | 13.86109 | 81.12069 | 37806 ft | 488 kts | 117° |
| 2026-05-05 19:44 | 13.83067 | 81.18310 | 37807 ft | 487 kts | 117° |
| 2026-05-05 19:44 | 13.80022 | 81.24553 | 37806 ft | 488 kts | 118° |
| 2026-05-05 19:45 | 13.77001 | 81.30741 | 37811 ft | 487 kts | 117° |
| 2026-05-05 19:45 | 13.73959 | 81.36967 | 37807 ft | 488 kts | 117° |
| 2026-05-05 19:46 | 13.70914 | 81.43193 | 37807 ft | 488 kts | 117° |
| 2026-05-05 19:46 | 13.67880 | 81.49406 | 37808 ft | 488 kts | 117° |
| 2026-05-05 19:47 | 13.64845 | 81.55627 | 37812 ft | 488 kts | 117° |
| 2026-05-05 19:47 | 13.61806 | 81.61848 | 37815 ft | 487 kts | 117° |
| 2026-05-05 19:48 | 13.58761 | 81.68079 | 37812 ft | 487 kts | 118° |
| 2026-05-05 19:48 | 13.55738 | 81.74260 | 37813 ft | 486 kts | 117° |
| 2026-05-05 19:49 | 13.52692 | 81.80482 | 37815 ft | 486 kts | 118° |
| 2026-05-05 19:49 | 13.49670 | 81.86651 | 37816 ft | 486 kts | 118° |
| 2026-05-05 19:50 | 13.46642 | 81.92826 | 37818 ft | 486 kts | 117° |
| 2026-05-05 19:50 | 13.43600 | 81.99026 | 37821 ft | 486 kts | 117° |
| 2026-05-05 19:51 | 13.40548 | 82.05243 | 37825 ft | 486 kts | 118° |
| 2026-05-05 19:51 | 13.37520 | 82.11404 | 37825 ft | 486 kts | 117° |
| 2026-05-05 19:52 | 13.34473 | 82.17602 | 37825 ft | 485 kts | 118° |
| 2026-05-05 19:52 | 13.31438 | 82.23769 | 37823 ft | 485 kts | 117° |
| 2026-05-05 19:53 | 13.28421 | 82.29896 | 37820 ft | 485 kts | 117° |
| 2026-05-05 19:53 | 13.25371 | 82.36083 | 37814 ft | 485 kts | 117° |
| 2026-05-05 19:54 | 13.22339 | 82.42232 | 37808 ft | 485 kts | 117° |
| 2026-05-05 19:54 | 13.19289 | 82.48412 | 37805 ft | 484 kts | 117° |
| 2026-05-05 19:55 | 13.16248 | 82.54568 | 37809 ft | 485 kts | 117° |
| 2026-05-05 19:55 | 13.13211 | 82.60710 | 37809 ft | 485 kts | 117° |
| 2026-05-05 19:56 | 13.10152 | 82.66894 | 37804 ft | 484 kts | 117° |
| 2026-05-05 19:56 | 13.07118 | 82.73025 | 37805 ft | 485 kts | 117° |
| 2026-05-05 19:57 | 13.04064 | 82.79190 | 37803 ft | 485 kts | 117° |
| 2026-05-05 19:57 | 13.01010 | 82.85350 | 37802 ft | 485 kts | 117° |
| 2026-05-05 19:58 | 12.97963 | 82.91494 | 37803 ft | 483 kts | 117° |
| 2026-05-05 19:58 | 12.94919 | 82.97625 | 37803 ft | 484 kts | 117° |
| 2026-05-05 19:59 | 12.91881 | 83.03739 | 37806 ft | 483 kts | 117° |
| 2026-05-05 19:59 | 12.88844 | 83.09847 | 37805 ft | 484 kts | 117° |
| 2026-05-05 20:00 | 12.85780 | 83.16007 | 37806 ft | 483 kts | 117° |
| 2026-05-05 20:00 | 12.82747 | 83.22099 | 37805 ft | 483 kts | 117° |
| 2026-05-05 20:01 | 12.79689 | 83.28236 | 37805 ft | 482 kts | 117° |
| 2026-05-05 20:01 | 12.76650 | 83.34333 | 37807 ft | 481 kts | 117° |
| 2026-05-05 20:02 | 12.73600 | 83.40447 | 37806 ft | 480 kts | 117° |
| 2026-05-05 20:02 | 12.70563 | 83.46529 | 37809 ft | 480 kts | 117° |
| 2026-05-05 20:03 | 12.67535 | 83.52589 | 37811 ft | 479 kts | 117° |
| 2026-05-05 20:03 | 12.64522 | 83.58688 | 37817 ft | 480 kts | 116° |
| 2026-05-05 20:04 | 12.61586 | 83.64817 | 37817 ft | 480 kts | 116° |
| 2026-05-05 20:04 | 12.58645 | 83.70948 | 37814 ft | 479 kts | 116° |
| 2026-05-05 20:05 | 12.55707 | 83.77058 | 37814 ft | 478 kts | 116° |
| 2026-05-05 20:05 | 12.52782 | 83.83136 | 37820 ft | 477 kts | 116° |
| 2026-05-05 20:06 | 12.49849 | 83.89224 | 37824 ft | 478 kts | 116° |
| 2026-05-05 20:06 | 12.46919 | 83.95303 | 37825 ft | 477 kts | 116° |
| 2026-05-05 20:07 | 12.43994 | 84.01363 | 37824 ft | 476 kts | 116° |
| 2026-05-05 20:07 | 12.41060 | 84.07439 | 37821 ft | 476 kts | 116° |
| 2026-05-05 20:08 | 12.38134 | 84.13495 | 37810 ft | 477 kts | 116° |
| 2026-05-05 20:08 | 12.35200 | 84.19562 | 37805 ft | 477 kts | 116° |
| 2026-05-05 20:09 | 12.32251 | 84.25655 | 37805 ft | 476 kts | 116° |
| 2026-05-05 20:09 | 12.29325 | 84.31699 | 37805 ft | 479 kts | 116° |
| 2026-05-05 20:10 | 12.26375 | 84.37787 | 37805 ft | 477 kts | 116° |
| 2026-05-05 20:10 | 12.23417 | 84.43887 | 37803 ft | 478 kts | 116° |
| 2026-05-05 20:11 | 12.20476 | 84.49947 | 37810 ft | 478 kts | 116° |
| 2026-05-05 20:11 | 12.17531 | 84.56014 | 37805 ft | 479 kts | 116° |
| 2026-05-05 20:12 | 12.14566 | 84.62116 | 37805 ft | 480 kts | 116° |
| 2026-05-05 20:12 | 12.11590 | 84.68237 | 37805 ft | 480 kts | 116° |
| 2026-05-05 20:13 | 12.08635 | 84.74309 | 37809 ft | 481 kts | 116° |
| 2026-05-05 20:13 | 12.05650 | 84.80441 | 37807 ft | 482 kts | 116° |
| 2026-05-05 20:14 | 12.02680 | 84.86536 | 37809 ft | 484 kts | 116° |
| 2026-05-05 20:14 | 11.99678 | 84.92696 | 37805 ft | 482 kts | 116° |
| 2026-05-05 20:15 | 11.96695 | 84.98811 | 37805 ft | 480 kts | 116° |
| 2026-05-05 20:15 | 11.93733 | 85.04877 | 37804 ft | 481 kts | 116° |
| 2026-05-05 20:16 | 11.90732 | 85.11021 | 37802 ft | 482 kts | 116° |
| 2026-05-05 20:16 | 11.87754 | 85.17114 | 37806 ft | 481 kts | 116° |
| 2026-05-05 20:17 | 11.84778 | 85.23199 | 37802 ft | 481 kts | 116° |
| 2026-05-05 20:17 | 11.81778 | 85.29327 | 37802 ft | 480 kts | 116° |
| 2026-05-05 20:18 | 11.78814 | 85.35380 | 37805 ft | 479 kts | 116° |
| 2026-05-05 20:18 | 11.75827 | 85.41473 | 37803 ft | 479 kts | 116° |
| 2026-05-05 20:19 | 11.72846 | 85.47552 | 37808 ft | 478 kts | 116° |
| 2026-05-05 20:19 | 11.69859 | 85.53641 | 37806 ft | 479 kts | 116° |
| 2026-05-05 20:20 | 11.66887 | 85.59692 | 37808 ft | 479 kts | 116° |
| 2026-05-05 20:20 | 11.63905 | 85.65760 | 37808 ft | 477 kts | 116° |
| 2026-05-05 20:21 | 11.60944 | 85.71783 | 37804 ft | 477 kts | 116° |
| 2026-05-05 20:21 | 11.57971 | 85.77827 | 37807 ft | 476 kts | 116° |
| 2026-05-05 20:22 | 11.54992 | 85.83878 | 37805 ft | 478 kts | 116° |
| 2026-05-05 20:22 | 11.52031 | 85.89888 | 37805 ft | 477 kts | 116° |
| 2026-05-05 20:23 | 11.49050 | 85.95937 | 37803 ft | 477 kts | 116° |
| 2026-05-05 20:23 | 11.46074 | 86.01969 | 37806 ft | 478 kts | 116° |
| 2026-05-05 20:24 | 11.43083 | 86.08029 | 37805 ft | 475 kts | 116° |
| 2026-05-05 20:24 | 11.40123 | 86.14024 | 37804 ft | 476 kts | 116° |
| 2026-05-05 20:25 | 11.37144 | 86.20053 | 37805 ft | 478 kts | 115° |
| 2026-05-05 20:25 | 11.34162 | 86.26083 | 37804 ft | 476 kts | 115° |
| 2026-05-05 20:26 | 11.31196 | 86.32078 | 37804 ft | 478 kts | 115° |
| 2026-05-05 20:26 | 11.28212 | 86.38106 | 37804 ft | 477 kts | 115° |
| 2026-05-05 20:27 | 11.25227 | 86.44131 | 37803 ft | 477 kts | 115° |
| 2026-05-05 20:27 | 11.22235 | 86.50169 | 37804 ft | 478 kts | 115° |
| 2026-05-05 20:28 | 11.19247 | 86.56193 | 37803 ft | 479 kts | 115° |
| 2026-05-05 20:28 | 11.16249 | 86.62233 | 37804 ft | 479 kts | 115° |
| 2026-05-05 20:29 | 11.13232 | 86.68309 | 37806 ft | 478 kts | 115° |
| 2026-05-05 20:29 | 11.10247 | 86.74317 | 37806 ft | 479 kts | 116° |
| 2026-05-05 20:30 | 11.07237 | 86.80371 | 37805 ft | 479 kts | 116° |
| 2026-05-05 20:30 | 11.04226 | 86.86423 | 37800 ft | 479 kts | 116° |
| 2026-05-05 20:31 | 11.01217 | 86.92468 | 37790 ft | 478 kts | 116° |
| 2026-05-05 20:31 | 10.98226 | 86.98472 | 37789 ft | 478 kts | 116° |
| 2026-05-05 20:32 | 10.95222 | 87.04501 | 37787 ft | 477 kts | 115° |
| 2026-05-05 20:32 | 10.92208 | 87.10545 | 37782 ft | 478 kts | 115° |
| 2026-05-05 20:33 | 10.89210 | 87.16553 | 37784 ft | 480 kts | 115° |
| 2026-05-05 20:33 | 10.86195 | 87.22591 | 37789 ft | 479 kts | 115° |
| 2026-05-05 20:34 | 10.83163 | 87.28661 | 37800 ft | 478 kts | 115° |
| 2026-05-05 20:34 | 10.80162 | 87.34665 | 37805 ft | 479 kts | 115° |
| 2026-05-05 20:35 | 10.77139 | 87.40707 | 37803 ft | 478 kts | 115° |
| 2026-05-05 20:35 | 10.74143 | 87.46696 | 37806 ft | 480 kts | 115° |
| 2026-05-05 20:36 | 10.71102 | 87.52767 | 37800 ft | 479 kts | 115° |
| 2026-05-05 20:36 | 10.68090 | 87.58778 | 37805 ft | 480 kts | 115° |
| 2026-05-05 20:37 | 10.65067 | 87.64809 | 37804 ft | 477 kts | 115° |
| 2026-05-05 20:37 | 10.62046 | 87.70831 | 37804 ft | 479 kts | 115° |
| 2026-05-05 20:38 | 10.59040 | 87.76821 | 37804 ft | 479 kts | 115° |
| 2026-05-05 20:38 | 10.56002 | 87.82870 | 37807 ft | 479 kts | 115° |
| 2026-05-05 20:39 | 10.52988 | 87.88869 | 37807 ft | 481 kts | 115° |
| 2026-05-05 20:39 | 10.49948 | 87.94916 | 37808 ft | 479 kts | 115° |
| 2026-05-05 20:40 | 10.46905 | 88.00965 | 37801 ft | 481 kts | 115° |
| 2026-05-05 20:40 | 10.43892 | 88.06949 | 37804 ft | 478 kts | 115° |
| 2026-05-05 20:41 | 10.40870 | 88.12949 | 37806 ft | 478 kts | 115° |
| 2026-05-05 20:41 | 10.37850 | 88.18943 | 37802 ft | 477 kts | 115° |
| 2026-05-05 20:42 | 10.34822 | 88.24950 | 37793 ft | 478 kts | 115° |
| 2026-05-05 20:42 | 10.31796 | 88.30948 | 37788 ft | 478 kts | 115° |
| 2026-05-05 20:43 | 10.28774 | 88.36935 | 37786 ft | 476 kts | 115° |
| 2026-05-05 20:43 | 10.25746 | 88.42930 | 37788 ft | 476 kts | 115° |
| 2026-05-05 20:44 | 10.22736 | 88.48886 | 37792 ft | 475 kts | 115° |
| 2026-05-05 20:44 | 10.19729 | 88.54889 | 37793 ft | 476 kts | 114° |
| 2026-05-05 20:45 | 10.15568 | 88.64032 | 37782 ft | 476 kts | 113° |
| 2026-05-05 20:45 | 10.12791 | 88.70122 | 37784 ft | 476 kts | 113° |
| 2026-05-05 20:46 | 10.10008 | 88.76209 | 37784 ft | 476 kts | 113° |
| 2026-05-05 20:46 | 10.07232 | 88.82268 | 37783 ft | 476 kts | 113° |
| 2026-05-05 20:47 | 10.04444 | 88.88345 | 37789 ft | 475 kts | 113° |
| 2026-05-05 20:47 | 10.01648 | 88.94434 | 37786 ft | 476 kts | 113° |
| 2026-05-05 20:48 | 9.98859 | 89.00503 | 37784 ft | 476 kts | 113° |
| 2026-05-05 20:48 | 9.96073 | 89.06561 | 37785 ft | 477 kts | 113° |
| 2026-05-05 20:49 | 9.93255 | 89.12686 | 37786 ft | 476 kts | 113° |
| 2026-05-05 20:49 | 9.90449 | 89.18780 | 37796 ft | 476 kts | 113° |
| 2026-05-05 20:50 | 9.87662 | 89.24829 | 37803 ft | 476 kts | 113° |
| 2026-05-05 20:50 | 9.84867 | 89.30894 | 37803 ft | 476 kts | 113° |
| 2026-05-05 20:51 | 9.82056 | 89.36990 | 37804 ft | 476 kts | 113° |
| 2026-05-05 20:51 | 9.79270 | 89.43027 | 37802 ft | 476 kts | 113° |
| 2026-05-05 20:52 | 9.76459 | 89.49115 | 37803 ft | 476 kts | 113° |
| 2026-05-05 20:52 | 9.73654 | 89.55187 | 37804 ft | 476 kts | 113° |
| 2026-05-05 20:53 | 9.70854 | 89.61245 | 37802 ft | 476 kts | 113° |
| 2026-05-05 20:53 | 9.68049 | 89.67310 | 37805 ft | 475 kts | 114° |
| 2026-05-05 20:54 | 9.65249 | 89.73363 | 37802 ft | 475 kts | 114° |
| 2026-05-05 20:54 | 9.62442 | 89.79425 | 37800 ft | 476 kts | 114° |
| 2026-05-05 20:55 | 9.59634 | 89.85487 | 37798 ft | 476 kts | 114° |
| 2026-05-05 20:55 | 9.56819 | 89.91559 | 37794 ft | 477 kts | 114° |
| 2026-05-05 20:56 | 9.54002 | 89.97635 | 37794 ft | 476 kts | 114° |
| 2026-05-05 20:56 | 9.51186 | 90.03704 | 37789 ft | 475 kts | 114° |
| 2026-05-05 20:57 | 9.48369 | 90.09771 | 37785 ft | 475 kts | 114° |
| 2026-05-05 20:57 | 9.45572 | 90.15794 | 37787 ft | 476 kts | 114° |
| 2026-05-05 20:58 | 9.42753 | 90.21860 | 37784 ft | 476 kts | 114° |
| 2026-05-05 20:58 | 9.39952 | 90.27885 | 37788 ft | 476 kts | 114° |
| 2026-05-05 20:59 | 9.37147 | 90.33914 | 37784 ft | 475 kts | 114° |
| 2026-05-05 20:59 | 9.34341 | 90.39941 | 37783 ft | 472 kts | 113° |
| 2026-05-05 21:00 | 9.31542 | 90.45950 | 37784 ft | 473 kts | 113° |
| 2026-05-05 21:00 | 9.28742 | 90.51962 | 37784 ft | 473 kts | 114° |
| 2026-05-05 21:01 | 9.25918 | 90.58019 | 37785 ft | 474 kts | 113° |
| 2026-05-05 21:01 | 9.23129 | 90.63998 | 37783 ft | 472 kts | 113° |
| 2026-05-05 21:02 | 9.20318 | 90.70020 | 37789 ft | 473 kts | 113° |
| 2026-05-05 21:02 | 9.17523 | 90.76008 | 37800 ft | 471 kts | 114° |
| 2026-05-05 21:03 | 9.14719 | 90.82010 | 37808 ft | 472 kts | 113° |
| 2026-05-05 21:03 | 9.11915 | 90.88008 | 37813 ft | 472 kts | 114° |
| 2026-05-05 21:04 | 9.09114 | 90.93999 | 37810 ft | 473 kts | 113° |
| 2026-05-05 21:04 | 9.06307 | 90.99998 | 37812 ft | 470 kts | 113° |
| 2026-05-05 21:05 | 9.03505 | 91.05984 | 37816 ft | 472 kts | 113° |
| 2026-05-05 21:05 | 9.00687 | 91.12001 | 37801 ft | 472 kts | 114° |
| 2026-05-05 21:06 | 8.97863 | 91.18029 | 37806 ft | 474 kts | 113° |
| 2026-05-05 21:06 | 8.95047 | 91.24036 | 37796 ft | 474 kts | 113° |
| 2026-05-05 21:07 | 8.92241 | 91.30019 | 37786 ft | 474 kts | 113° |
| 2026-05-05 21:07 | 8.89410 | 91.36053 | 37778 ft | 476 kts | 113° |
| 2026-05-05 21:08 | 8.86564 | 91.42114 | 37783 ft | 477 kts | 113° |
| 2026-05-05 21:08 | 8.83723 | 91.48162 | 37774 ft | 477 kts | 113° |
| 2026-05-05 21:09 | 8.80878 | 91.54217 | 37775 ft | 479 kts | 113° |
| 2026-05-05 21:09 | 8.78022 | 91.60291 | 37777 ft | 477 kts | 113° |
| 2026-05-05 21:10 | 8.75173 | 91.66347 | 37784 ft | 478 kts | 113° |
| 2026-05-05 21:10 | 8.72321 | 91.72407 | 37781 ft | 480 kts | 114° |
| 2026-05-05 21:11 | 8.69443 | 91.78519 | 37784 ft | 480 kts | 113° |
| 2026-05-05 21:11 | 8.66589 | 91.84577 | 37785 ft | 481 kts | 113° |
| 2026-05-05 21:12 | 8.63708 | 91.90690 | 37787 ft | 481 kts | 113° |
| 2026-05-05 21:12 | 8.60825 | 91.96803 | 37799 ft | 482 kts | 114° |
| 2026-05-05 21:13 | 8.58003 | 92.02903 | 37809 ft | 481 kts | 112° |
| 2026-05-05 21:13 | 8.55287 | 92.09071 | 37804 ft | 480 kts | 112° |
| 2026-05-05 21:14 | 8.52581 | 92.15202 | 37804 ft | 481 kts | 112° |
| 2026-05-05 21:14 | 8.49840 | 92.21398 | 37804 ft | 481 kts | 112° |
| 2026-05-05 21:15 | 8.47122 | 92.27535 | 37804 ft | 481 kts | 112° |
| 2026-05-05 21:15 | 8.44401 | 92.33671 | 37805 ft | 480 kts | 112° |
| 2026-05-05 21:16 | 8.41671 | 92.39823 | 37804 ft | 479 kts | 112° |
| 2026-05-05 21:16 | 8.38950 | 92.45953 | 37803 ft | 479 kts | 112° |
| 2026-05-05 21:17 | 8.36219 | 92.52100 | 37804 ft | 479 kts | 112° |
| 2026-05-05 21:17 | 8.33498 | 92.58221 | 37804 ft | 480 kts | 111° |
| 2026-05-05 21:18 | 8.30771 | 92.64352 | 37803 ft | 480 kts | 111° |
| 2026-05-05 21:18 | 8.28050 | 92.70468 | 37795 ft | 479 kts | 112° |
| 2026-05-05 21:19 | 8.25331 | 92.76575 | 37786 ft | 478 kts | 112° |
| 2026-05-05 21:19 | 8.22595 | 92.82720 | 37788 ft | 479 kts | 111° |
| 2026-05-05 21:20 | 8.19888 | 92.88794 | 37786 ft | 478 kts | 112° |
| 2026-05-05 21:20 | 8.17166 | 92.94902 | 37785 ft | 479 kts | 112° |
| 2026-05-05 21:21 | 8.14423 | 93.01051 | 37785 ft | 479 kts | 112° |
| 2026-05-05 21:21 | 8.11702 | 93.07149 | 37785 ft | 477 kts | 111° |
| 2026-05-05 21:22 | 8.08973 | 93.13260 | 37785 ft | 477 kts | 111° |
| 2026-05-05 21:22 | 8.06258 | 93.19341 | 37788 ft | 477 kts | 111° |
| 2026-05-05 21:23 | 8.03540 | 93.25423 | 37792 ft | 477 kts | 111° |
| 2026-05-05 21:23 | 8.00794 | 93.31565 | 37799 ft | 478 kts | 111° |
| 2026-05-05 21:24 | 7.98075 | 93.37644 | 37804 ft | 479 kts | 111° |
| 2026-05-05 21:24 | 7.95337 | 93.43764 | 37804 ft | 477 kts | 111° |
| 2026-05-05 21:25 | 7.92620 | 93.49833 | 37804 ft | 476 kts | 111° |
| 2026-05-05 21:25 | 7.89921 | 93.55907 | 37803 ft | 476 kts | 111° |
| 2026-05-05 21:26 | 7.87218 | 93.61996 | 37801 ft | 476 kts | 111° |
| 2026-05-05 21:26 | 7.84499 | 93.68117 | 37805 ft | 477 kts | 111° |
| 2026-05-05 21:27 | 7.81801 | 93.74188 | 37804 ft | 477 kts | 111° |
| 2026-05-05 21:27 | 7.79079 | 93.80309 | 37804 ft | 477 kts | 111° |
| 2026-05-05 21:28 | 7.76373 | 93.86393 | 37804 ft | 476 kts | 111° |
| 2026-05-05 21:28 | 7.73671 | 93.92463 | 37804 ft | 476 kts | 112° |
| 2026-05-05 21:29 | 7.70960 | 93.98550 | 37803 ft | 476 kts | 112° |
| 2026-05-05 21:29 | 7.68251 | 94.04633 | 37804 ft | 476 kts | 112° |
| 2026-05-05 21:30 | 7.65555 | 94.10679 | 37804 ft | 476 kts | 111° |
| 2026-05-05 21:30 | 7.62832 | 94.16786 | 37803 ft | 476 kts | 112° |
| 2026-05-05 21:31 | 7.60112 | 94.22884 | 37803 ft | 476 kts | 112° |
| 2026-05-05 21:31 | 7.57402 | 94.28956 | 37804 ft | 476 kts | 112° |
| 2026-05-05 21:32 | 7.54691 | 94.35027 | 37803 ft | 477 kts | 112° |
| 2026-05-05 21:32 | 7.51988 | 94.41079 | 37800 ft | 476 kts | 112° |
| 2026-05-05 21:33 | 7.49124 | 94.47115 | 37795 ft | 477 kts | 114° |
| 2026-05-05 21:33 | 7.46205 | 94.53091 | 37792 ft | 476 kts | 114° |
| 2026-05-05 21:34 | 7.43293 | 94.59066 | 37786 ft | 476 kts | 114° |
| 2026-05-05 21:34 | 7.40382 | 94.65046 | 37788 ft | 477 kts | 114° |
| 2026-05-05 21:35 | 7.37471 | 94.71031 | 37799 ft | 477 kts | 114° |
| 2026-05-05 21:35 | 7.34553 | 94.77030 | 37801 ft | 477 kts | 114° |
| 2026-05-05 21:36 | 7.31619 | 94.83061 | 37806 ft | 477 kts | 114° |
| 2026-05-05 21:36 | 7.28712 | 94.89033 | 37805 ft | 477 kts | 114° |
| 2026-05-05 21:37 | 7.25796 | 94.95025 | 37805 ft | 477 kts | 114° |
| 2026-05-05 21:37 | 7.22881 | 95.01011 | 37805 ft | 478 kts | 114° |
| 2026-05-05 21:38 | 7.19943 | 95.07043 | 37805 ft | 479 kts | 114° |
| 2026-05-05 21:38 | 7.17028 | 95.13023 | 37805 ft | 478 kts | 114° |
| 2026-05-05 21:39 | 7.14102 | 95.19025 | 37804 ft | 478 kts | 114° |
| 2026-05-05 21:39 | 7.11180 | 95.25015 | 37804 ft | 477 kts | 114° |
| 2026-05-05 21:40 | 7.08249 | 95.31024 | 37804 ft | 477 kts | 114° |
| 2026-05-05 21:40 | 7.05326 | 95.37012 | 37804 ft | 478 kts | 114° |
| 2026-05-05 21:41 | 7.02407 | 95.42990 | 37803 ft | 478 kts | 114° |
| 2026-05-05 21:41 | 6.99472 | 95.49000 | 37804 ft | 478 kts | 114° |
| 2026-05-05 21:42 | 6.96544 | 95.54992 | 37804 ft | 479 kts | 114° |
| 2026-05-05 21:42 | 6.93605 | 95.61002 | 37803 ft | 478 kts | 113° |
| 2026-05-05 21:43 | 6.90684 | 95.66976 | 37808 ft | 479 kts | 114° |
| 2026-05-05 21:43 | 6.87745 | 95.72985 | 37804 ft | 477 kts | 114° |
| 2026-05-05 21:44 | 6.84812 | 95.78978 | 37806 ft | 477 kts | 114° |
| 2026-05-05 21:44 | 6.81876 | 95.84976 | 37812 ft | 479 kts | 114° |
| 2026-05-05 21:45 | 6.78942 | 95.90965 | 37817 ft | 479 kts | 114° |
| 2026-05-05 21:45 | 6.76002 | 95.96967 | 37819 ft | 478 kts | 114° |
| 2026-05-05 21:46 | 6.73050 | 96.02991 | 37817 ft | 479 kts | 114° |
| 2026-05-05 21:46 | 6.70122 | 96.08967 | 37819 ft | 478 kts | 113° |
| 2026-05-05 21:47 | 6.67186 | 96.14956 | 37817 ft | 479 kts | 114° |
| 2026-05-05 21:47 | 6.64250 | 96.20942 | 37818 ft | 479 kts | 114° |
| 2026-05-05 21:48 | 6.61298 | 96.26961 | 37819 ft | 481 kts | 114° |
| 2026-05-05 21:48 | 6.58338 | 96.32990 | 37809 ft | 481 kts | 114° |
| 2026-05-05 21:49 | 6.55384 | 96.39008 | 37803 ft | 481 kts | 114° |
| 2026-05-05 21:49 | 6.52422 | 96.45039 | 37803 ft | 480 kts | 114° |
| 2026-05-05 21:50 | 6.49837 | 96.51161 | 37825 ft | 478 kts | 104° |
| 2026-05-05 21:50 | 6.47945 | 96.57560 | 37803 ft | 479 kts | 104° |
| 2026-05-05 21:51 | 6.46056 | 96.64010 | 37803 ft | 480 kts | 104° |
| 2026-05-05 21:51 | 6.44181 | 96.70407 | 37806 ft | 479 kts | 104° |
| 2026-05-05 21:52 | 6.41364 | 96.80013 | 37806 ft | 480 kts | 104° |
| 2026-05-05 21:53 | 6.39471 | 96.86466 | 37806 ft | 480 kts | 104° |
| 2026-05-05 21:53 | 6.37593 | 96.92862 | 37806 ft | 480 kts | 104° |
| 2026-05-05 21:54 | 6.35710 | 96.99271 | 37805 ft | 480 kts | 104° |
| 2026-05-05 21:54 | 6.33811 | 97.05733 | 37806 ft | 480 kts | 104° |
| 2026-05-05 21:55 | 6.31926 | 97.12143 | 37804 ft | 480 kts | 104° |
| 2026-05-05 21:55 | 6.30040 | 97.18554 | 37805 ft | 479 kts | 104° |
| 2026-05-05 21:56 | 6.28155 | 97.24960 | 37804 ft | 479 kts | 104° |
| 2026-05-05 21:56 | 6.26266 | 97.31374 | 37804 ft | 479 kts | 104° |
| 2026-05-05 21:57 | 6.24388 | 97.37749 | 37804 ft | 478 kts | 104° |
| 2026-05-05 21:57 | 6.22499 | 97.44157 | 37802 ft | 478 kts | 104° |
| 2026-05-05 21:58 | 6.20622 | 97.50523 | 37803 ft | 478 kts | 104° |
| 2026-05-05 21:58 | 6.18534 | 97.56830 | 37777 ft | 478 kts | 112° |
| 2026-05-05 21:59 | 6.14952 | 97.62450 | 37788 ft | 481 kts | 127° |
| 2026-05-05 21:59 | 6.10565 | 97.67535 | 37809 ft | 481 kts | 128° |
| 2026-05-05 22:00 | 6.06168 | 97.72610 | 37807 ft | 480 kts | 128° |
| 2026-05-05 22:00 | 6.01798 | 97.77664 | 37811 ft | 480 kts | 129° |
| 2026-05-05 22:01 | 5.97405 | 97.82749 | 37811 ft | 480 kts | 128° |
| 2026-05-05 22:01 | 5.93048 | 97.87795 | 37815 ft | 479 kts | 128° |
| 2026-05-05 22:02 | 5.88687 | 97.92846 | 37822 ft | 478 kts | 128° |
| 2026-05-05 22:02 | 5.84337 | 97.97884 | 37818 ft | 479 kts | 128° |
| 2026-05-05 22:03 | 5.79960 | 98.02952 | 37807 ft | 480 kts | 128° |
| 2026-05-05 22:03 | 5.75587 | 98.08012 | 37804 ft | 480 kts | 128° |
| 2026-05-05 22:04 | 5.71176 | 98.13119 | 37804 ft | 481 kts | 128° |
| 2026-05-05 22:04 | 5.66795 | 98.18187 | 37804 ft | 480 kts | 128° |
| 2026-05-05 22:05 | 5.62418 | 98.23249 | 37803 ft | 480 kts | 128° |
| 2026-05-05 22:05 | 5.58050 | 98.28301 | 37803 ft | 480 kts | 128° |
| 2026-05-05 22:06 | 5.53665 | 98.33371 | 37804 ft | 481 kts | 128° |
| 2026-05-05 22:06 | 5.49264 | 98.38459 | 37804 ft | 482 kts | 128° |
| 2026-05-05 22:07 | 5.44892 | 98.43511 | 37804 ft | 482 kts | 128° |
| 2026-05-05 22:07 | 5.40497 | 98.48589 | 37804 ft | 482 kts | 128° |
| 2026-05-05 22:08 | 5.36087 | 98.53682 | 37802 ft | 481 kts | 128° |
| 2026-05-05 22:08 | 5.31701 | 98.58747 | 37803 ft | 482 kts | 128° |
| 2026-05-05 22:09 | 5.27323 | 98.63802 | 37803 ft | 483 kts | 128° |
| 2026-05-05 22:09 | 5.22889 | 98.68920 | 37807 ft | 483 kts | 128° |
| 2026-05-05 22:10 | 5.18496 | 98.73990 | 37806 ft | 484 kts | 129° |
| 2026-05-05 22:10 | 5.14091 | 98.79071 | 37806 ft | 483 kts | 129° |
| 2026-05-05 22:11 | 5.09693 | 98.84143 | 37806 ft | 482 kts | 129° |
| 2026-05-05 22:11 | 5.05270 | 98.89244 | 37806 ft | 482 kts | 129° |
| 2026-05-05 22:12 | 5.00880 | 98.94305 | 37806 ft | 483 kts | 129° |
| 2026-05-05 22:12 | 4.96449 | 98.99413 | 37808 ft | 484 kts | 129° |
| 2026-05-05 22:13 | 4.92021 | 99.04517 | 37807 ft | 485 kts | 129° |
| 2026-05-05 22:13 | 4.87586 | 99.09626 | 37816 ft | 485 kts | 129° |
| 2026-05-05 22:14 | 4.83156 | 99.14729 | 37822 ft | 485 kts | 129° |
| 2026-05-05 22:14 | 4.78744 | 99.19810 | 37825 ft | 485 kts | 129° |
| 2026-05-05 22:15 | 4.74306 | 99.24920 | 37824 ft | 483 kts | 129° |
| 2026-05-05 22:15 | 4.69899 | 99.29993 | 37822 ft | 485 kts | 129° |
| 2026-05-05 22:16 | 4.65471 | 99.35090 | 37819 ft | 486 kts | 129° |
| 2026-05-05 22:16 | 4.61017 | 99.40215 | 37810 ft | 486 kts | 129° |
| 2026-05-05 22:17 | 4.56599 | 99.45297 | 37806 ft | 486 kts | 129° |
| 2026-05-05 22:17 | 4.52149 | 99.50416 | 37805 ft | 486 kts | 129° |
| 2026-05-05 22:18 | 4.47648 | 99.55447 | 37794 ft | 486 kts | 132° |
| 2026-05-05 22:18 | 4.42877 | 99.60275 | 37802 ft | 487 kts | 133° |
| 2026-05-05 22:19 | 4.38112 | 99.65110 | 37805 ft | 486 kts | 133° |
| 2026-05-05 22:19 | 4.33357 | 99.69952 | 37806 ft | 487 kts | 133° |
| 2026-05-05 22:20 | 4.28639 | 99.74763 | 37803 ft | 487 kts | 133° |
| 2026-05-05 22:20 | 4.23866 | 99.79635 | 37805 ft | 487 kts | 133° |
| 2026-05-05 22:21 | 4.19149 | 99.84451 | 37806 ft | 488 kts | 133° |
| 2026-05-05 22:21 | 4.14379 | 99.89323 | 37804 ft | 487 kts | 132° |
| 2026-05-05 22:22 | 4.09657 | 99.94144 | 37805 ft | 485 kts | 133° |
| 2026-05-05 22:22 | 4.04944 | 99.98957 | 37806 ft | 485 kts | 133° |
| 2026-05-05 22:23 | 4.00186 | 100.03815 | 37808 ft | 486 kts | 133° |
| 2026-05-05 22:23 | 3.95486 | 100.08613 | 37816 ft | 485 kts | 132° |
| 2026-05-05 22:24 | 3.90761 | 100.13435 | 37823 ft | 484 kts | 132° |
| 2026-05-05 22:24 | 3.86021 | 100.18272 | 37825 ft | 484 kts | 132° |
| 2026-05-05 22:25 | 3.81304 | 100.23086 | 37823 ft | 484 kts | 133° |
| 2026-05-05 22:25 | 3.76607 | 100.27877 | 37825 ft | 484 kts | 133° |
| 2026-05-05 22:26 | 3.71877 | 100.32702 | 37823 ft | 484 kts | 133° |
| 2026-05-05 22:26 | 3.67160 | 100.37513 | 37824 ft | 483 kts | 132° |
| 2026-05-05 22:27 | 3.62481 | 100.42284 | 37824 ft | 483 kts | 133° |
| 2026-05-05 22:27 | 3.57769 | 100.47087 | 37826 ft | 483 kts | 133° |
| 2026-05-05 22:28 | 3.53043 | 100.51905 | 37827 ft | 483 kts | 133° |
| 2026-05-05 22:28 | 3.48344 | 100.56694 | 37822 ft | 483 kts | 133° |
| 2026-05-05 22:29 | 3.43648 | 100.61481 | 37826 ft | 482 kts | 133° |
| 2026-05-05 22:29 | 3.38932 | 100.66286 | 37827 ft | 482 kts | 133° |
| 2026-05-05 22:30 | 3.34230 | 100.71077 | 37825 ft | 481 kts | 133° |
| 2026-05-05 22:30 | 3.29552 | 100.75843 | 37824 ft | 483 kts | 133° |
| 2026-05-05 22:31 | 3.24858 | 100.80624 | 37826 ft | 483 kts | 133° |
| 2026-05-05 22:31 | 3.20145 | 100.85425 | 37825 ft | 483 kts | 133° |
| 2026-05-05 22:32 | 3.15442 | 100.90214 | 37826 ft | 482 kts | 133° |
| 2026-05-05 22:32 | 3.10754 | 100.94987 | 37818 ft | 482 kts | 133° |
| 2026-05-05 22:33 | 3.06023 | 100.99805 | 37810 ft | 482 kts | 133° |
| 2026-05-05 22:33 | 3.01330 | 101.04591 | 37808 ft | 482 kts | 133° |
| 2026-05-05 22:34 | 2.96654 | 101.09359 | 37809 ft | 481 kts | 133° |
| 2026-05-05 22:34 | 2.91980 | 101.14123 | 37816 ft | 480 kts | 133° |
| 2026-05-05 22:35 | 2.87273 | 101.18921 | 37820 ft | 481 kts | 133° |
| 2026-05-05 22:35 | 2.82593 | 101.23691 | 37822 ft | 482 kts | 133° |
| 2026-05-05 22:36 | 2.77906 | 101.28468 | 37830 ft | 481 kts | 133° |
| 2026-05-05 22:36 | 2.73214 | 101.33249 | 37833 ft | 483 kts | 133° |
| 2026-05-05 22:37 | 2.68493 | 101.38058 | 37834 ft | 482 kts | 133° |
| 2026-05-05 22:37 | 2.63803 | 101.42834 | 37835 ft | 481 kts | 132° |
| 2026-05-05 22:38 | 2.59117 | 101.47608 | 37835 ft | 482 kts | 133° |
| 2026-05-05 22:38 | 2.54416 | 101.52396 | 37833 ft | 482 kts | 132° |
| 2026-05-05 22:39 | 2.49716 | 101.57182 | 37830 ft | 483 kts | 133° |
| 2026-05-05 22:39 | 2.45009 | 101.61974 | 37838 ft | 483 kts | 133° |
| 2026-05-05 22:40 | 2.40305 | 101.66764 | 37842 ft | 483 kts | 132° |
| 2026-05-05 22:40 | 2.35581 | 101.71573 | 37838 ft | 484 kts | 133° |
| 2026-05-05 22:41 | 2.30867 | 101.76372 | 37835 ft | 484 kts | 133° |
| 2026-05-05 22:41 | 2.26153 | 101.81170 | 37835 ft | 483 kts | 133° |
| 2026-05-05 22:42 | 2.21449 | 101.85957 | 37832 ft | 483 kts | 133° |
| 2026-05-05 22:42 | 2.16747 | 101.90741 | 37831 ft | 483 kts | 133° |
| 2026-05-05 22:43 | 2.12042 | 101.95529 | 37829 ft | 484 kts | 133° |
| 2026-05-05 22:43 | 2.07299 | 102.00355 | 37829 ft | 484 kts | 133° |
| 2026-05-05 22:44 | 2.02567 | 102.05168 | 37828 ft | 484 kts | 133° |
| 2026-05-05 22:44 | 1.97927 | 102.09988 | 37839 ft | 483 kts | 128° |
| 2026-05-05 22:45 | 1.94050 | 102.15494 | 37831 ft | 483 kts | 122° |
| 2026-05-05 22:45 | 1.90339 | 102.21040 | 37829 ft | 482 kts | 122° |
| 2026-05-05 22:46 | 1.86607 | 102.26618 | 37830 ft | 482 kts | 122° |
| 2026-05-05 22:46 | 1.82879 | 102.32191 | 37831 ft | 484 kts | 122° |
| 2026-05-05 22:47 | 1.79137 | 102.37785 | 37836 ft | 482 kts | 122° |
| 2026-05-05 22:47 | 1.75417 | 102.43344 | 37839 ft | 482 kts | 122° |
| 2026-05-05 22:48 | 1.71670 | 102.48943 | 37844 ft | 482 kts | 122° |
| 2026-05-05 22:48 | 1.67951 | 102.54501 | 37845 ft | 483 kts | 122° |
| 2026-05-05 22:49 | 1.64212 | 102.60086 | 37845 ft | 483 kts | 122° |
| 2026-05-05 22:49 | 1.60483 | 102.65658 | 37845 ft | 482 kts | 122° |
| 2026-05-05 22:50 | 1.56769 | 102.71207 | 37847 ft | 483 kts | 122° |
| 2026-05-05 22:50 | 1.53027 | 102.76796 | 37845 ft | 482 kts | 122° |
| 2026-05-05 22:51 | 1.49297 | 102.82368 | 37844 ft | 482 kts | 122° |
| 2026-05-05 22:51 | 1.45593 | 102.87900 | 37844 ft | 482 kts | 122° |
| 2026-05-05 22:52 | 1.41868 | 102.93462 | 37846 ft | 482 kts | 122° |
| 2026-05-05 22:52 | 1.38147 | 102.99020 | 37846 ft | 483 kts | 122° |
| 2026-05-05 22:53 | 1.34403 | 103.04626 | 37846 ft | 483 kts | 122° |
| 2026-05-05 22:53 | 1.30659 | 103.10231 | 37844 ft | 482 kts | 122° |
| 2026-05-05 22:54 | 1.26934 | 103.15809 | 37845 ft | 483 kts | 122° |
| 2026-05-05 22:54 | 1.23209 | 103.21384 | 37839 ft | 483 kts | 122° |
| 2026-05-05 22:55 | 1.19491 | 103.26951 | 37833 ft | 482 kts | 122° |
| 2026-05-05 22:55 | 1.15783 | 103.32501 | 37828 ft | 483 kts | 122° |
| 2026-05-05 22:56 | 1.12034 | 103.38111 | 37828 ft | 484 kts | 122° |
| 2026-05-05 22:56 | 1.08312 | 103.43682 | 37825 ft | 483 kts | 122° |
| 2026-05-05 22:57 | 1.04565 | 103.49217 | 37802 ft | 482 kts | 126° |
| 2026-05-05 22:57 | 1.00042 | 103.54168 | 37826 ft | 484 kts | 132° |
| 2026-05-05 22:58 | 0.95428 | 103.58922 | 37823 ft | 483 kts | 132° |
| 2026-05-05 22:58 | 0.90726 | 103.63772 | 37835 ft | 484 kts | 132° |
| 2026-05-05 22:59 | 0.86052 | 103.68597 | 37844 ft | 485 kts | 132° |
| 2026-05-05 22:59 | 0.81350 | 103.73453 | 37847 ft | 484 kts | 132° |
| 2026-05-05 23:00 | 0.74313 | 103.80722 | 37846 ft | 484 kts | 132° |
| 2026-05-05 23:00 | 0.69652 | 103.85535 | 37844 ft | 484 kts | 132° |
| 2026-05-05 23:01 | 0.64970 | 103.90372 | 37847 ft | 484 kts | 132° |
| 2026-05-05 23:01 | 0.60278 | 103.95219 | 37846 ft | 485 kts | 132° |
| 2026-05-05 23:02 | 0.55598 | 104.00053 | 37847 ft | 486 kts | 133° |
| 2026-05-05 23:02 | 0.50902 | 104.04901 | 37846 ft | 486 kts | 132° |
| 2026-05-05 23:03 | 0.46197 | 104.09758 | 37845 ft | 485 kts | 132° |
| 2026-05-05 23:03 | 0.41511 | 104.14596 | 37846 ft | 485 kts | 132° |
| 2026-05-05 23:04 | 0.36777 | 104.19483 | 37847 ft | 485 kts | 132° |
| 2026-05-05 23:04 | 0.32079 | 104.24332 | 37847 ft | 486 kts | 132° |
| 2026-05-05 23:05 | 0.27386 | 104.29179 | 37845 ft | 486 kts | 132° |
| 2026-05-05 23:05 | 0.22657 | 104.34061 | 37841 ft | 486 kts | 132° |
| 2026-05-05 23:06 | 0.17977 | 104.38894 | 37837 ft | 486 kts | 132° |
| 2026-05-05 23:06 | 0.13287 | 104.43736 | 37831 ft | 487 kts | 132° |
| 2026-05-05 23:07 | 0.08553 | 104.48624 | 37826 ft | 487 kts | 132° |
| 2026-05-05 23:07 | 0.03843 | 104.53487 | 37826 ft | 487 kts | 132° |
| 2026-05-05 23:08 | -0.00866 | 104.58350 | 37827 ft | 487 kts | 132° |
| 2026-05-05 23:08 | -0.05585 | 104.63221 | 37828 ft | 487 kts | 132° |
| 2026-05-05 23:09 | -0.10298 | 104.68089 | 37831 ft | 487 kts | 132° |
| 2026-05-05 23:09 | -0.15005 | 104.72948 | 37828 ft | 487 kts | 132° |
| 2026-05-05 23:10 | -0.19716 | 104.77812 | 37827 ft | 488 kts | 132° |
| 2026-05-05 23:10 | -0.24462 | 104.82713 | 37827 ft | 488 kts | 132° |
| 2026-05-05 23:11 | -0.29376 | 104.87374 | 37804 ft | 489 kts | 142° |
| 2026-05-05 23:11 | -0.34988 | 104.91232 | 37840 ft | 490 kts | 144° |
| 2026-05-05 23:12 | -0.40623 | 104.95033 | 37846 ft | 490 kts | 144° |
| 2026-05-05 23:12 | -0.46276 | 104.98850 | 37846 ft | 490 kts | 144° |
| 2026-05-05 23:13 | -0.51976 | 105.02704 | 37846 ft | 490 kts | 144° |
| 2026-05-05 23:13 | -0.57610 | 105.06515 | 37846 ft | 491 kts | 144° |
| 2026-05-05 23:14 | -0.63309 | 105.10370 | 37846 ft | 491 kts | 144° |
| 2026-05-05 23:14 | -0.68951 | 105.14188 | 37847 ft | 490 kts | 144° |
| 2026-05-05 23:15 | -0.74620 | 105.18023 | 37846 ft | 490 kts | 144° |
| 2026-05-05 23:15 | -0.80248 | 105.21832 | 37846 ft | 491 kts | 144° |
| 2026-05-05 23:16 | -0.85933 | 105.25679 | 37847 ft | 491 kts | 144° |
| 2026-05-05 23:16 | -0.91595 | 105.29511 | 37847 ft | 491 kts | 144° |
| 2026-05-05 23:17 | -0.97256 | 105.33342 | 37847 ft | 491 kts | 144° |
| 2026-05-05 23:17 | -1.02883 | 105.37151 | 37847 ft | 490 kts | 144° |
| 2026-05-05 23:18 | -1.08562 | 105.40994 | 37847 ft | 490 kts | 144° |
| 2026-05-05 23:18 | -1.14010 | 105.44682 | 37845 ft | 490 kts | 144° |
| 2026-05-05 23:19 | -1.19666 | 105.48511 | 37844 ft | 491 kts | 144° |
| 2026-05-05 23:19 | -1.25322 | 105.52339 | 37840 ft | 490 kts | 144° |
| 2026-05-05 23:20 | -1.30950 | 105.56149 | 37838 ft | 490 kts | 144° |
| 2026-05-05 23:20 | -1.36608 | 105.59980 | 37836 ft | 490 kts | 144° |
| 2026-05-05 23:21 | -1.42268 | 105.63812 | 37836 ft | 490 kts | 144° |
| 2026-05-05 23:21 | -1.47942 | 105.67654 | 37835 ft | 490 kts | 144° |
| 2026-05-05 23:22 | -1.53623 | 105.71500 | 37834 ft | 490 kts | 144° |
| 2026-05-05 23:22 | -1.59264 | 105.75321 | 37839 ft | 489 kts | 144° |
| 2026-05-05 23:23 | -1.64904 | 105.79140 | 37841 ft | 489 kts | 144° |
| 2026-05-05 23:23 | -1.70557 | 105.82969 | 37847 ft | 489 kts | 144° |
| 2026-05-05 23:24 | -1.76179 | 105.86777 | 37860 ft | 490 kts | 144° |
| 2026-05-05 23:24 | -1.81841 | 105.90613 | 37867 ft | 490 kts | 144° |
| 2026-05-05 23:25 | -1.87479 | 105.94432 | 37871 ft | 490 kts | 144° |
| 2026-05-05 23:25 | -1.93156 | 105.98278 | 37866 ft | 490 kts | 144° |
| 2026-05-05 23:26 | -1.98818 | 106.02115 | 37860 ft | 491 kts | 144° |
| 2026-05-05 23:26 | -2.04467 | 106.05942 | 37858 ft | 490 kts | 144° |
| 2026-05-05 23:27 | -2.10139 | 106.09785 | 37857 ft | 489 kts | 144° |
| 2026-05-05 23:27 | -2.15927 | 106.13336 | 37821 ft | 490 kts | 154° |
| 2026-05-05 23:28 | -2.22531 | 106.15288 | 37838 ft | 491 kts | 169° |
| 2026-05-05 23:28 | -2.29276 | 106.16426 | 37850 ft | 491 kts | 169° |
| 2026-05-05 23:29 | -2.36031 | 106.17564 | 37848 ft | 491 kts | 169° |
| 2026-05-05 23:29 | -2.42784 | 106.18709 | 37848 ft | 490 kts | 169° |
| 2026-05-05 23:30 | -2.49559 | 106.19862 | 37849 ft | 491 kts | 169° |
| 2026-05-05 23:30 | -2.56334 | 106.21019 | 37850 ft | 490 kts | 169° |
| 2026-05-05 23:31 | -2.63080 | 106.22172 | 37846 ft | 491 kts | 169° |
| 2026-05-05 23:31 | -2.69830 | 106.23326 | 37854 ft | 491 kts | 169° |
| 2026-05-05 23:32 | -2.76566 | 106.24478 | 37848 ft | 490 kts | 169° |
| 2026-05-05 23:32 | -2.83342 | 106.25638 | 37846 ft | 492 kts | 169° |
| 2026-05-05 23:33 | -2.90113 | 106.26798 | 37847 ft | 491 kts | 169° |
| 2026-05-05 23:33 | -2.96846 | 106.27949 | 37848 ft | 491 kts | 169° |
| 2026-05-05 23:34 | -3.03606 | 106.29107 | 37851 ft | 491 kts | 169° |
| 2026-05-05 23:34 | -3.10365 | 106.30264 | 37850 ft | 490 kts | 169° |
| 2026-05-05 23:35 | -3.17082 | 106.31415 | 37848 ft | 490 kts | 169° |
| 2026-05-05 23:35 | -3.23841 | 106.32573 | 37847 ft | 492 kts | 169° |
| 2026-05-05 23:36 | -3.30598 | 106.33730 | 37849 ft | 492 kts | 169° |
| 2026-05-05 23:36 | -3.37390 | 106.34894 | 37859 ft | 490 kts | 169° |
| 2026-05-05 23:37 | -3.44145 | 106.36052 | 37865 ft | 490 kts | 169° |
| 2026-05-05 23:37 | -3.50866 | 106.37203 | 37865 ft | 489 kts | 169° |
| 2026-05-05 23:38 | -3.57589 | 106.38356 | 37866 ft | 490 kts | 169° |
| 2026-05-05 23:38 | -3.64305 | 106.39516 | 37869 ft | 490 kts | 168° |
| 2026-05-05 23:39 | -3.71023 | 106.40778 | 37866 ft | 490 kts | 168° |
| 2026-05-05 23:39 | -3.77738 | 106.42041 | 37865 ft | 488 kts | 168° |
| 2026-05-05 23:40 | -3.84434 | 106.43297 | 37865 ft | 488 kts | 168° |
| 2026-05-05 23:40 | -3.91107 | 106.44548 | 37864 ft | 488 kts | 168° |
| 2026-05-05 23:41 | -3.97828 | 106.45807 | 37856 ft | 486 kts | 168° |
| 2026-05-05 23:41 | -4.01130 | 106.46426 | 37373 ft | 480 kts | 168° |
| 2026-05-05 23:41 | -4.04413 | 106.47041 | 36393 ft | 482 kts | 168° |
| 2026-05-05 23:42 | -4.07704 | 106.47657 | 35575 ft | 480 kts | 168° |
| 2026-05-05 23:42 | -4.10990 | 106.48272 | 34798 ft | 478 kts | 168° |
| 2026-05-05 23:42 | -4.14243 | 106.48882 | 33971 ft | 478 kts | 168° |
| 2026-05-05 23:42 | -4.17560 | 106.49504 | 33130 ft | 496 kts | 168° |
| 2026-05-05 23:43 | -4.21019 | 106.50155 | 32246 ft | 507 kts | 168° |
| 2026-05-05 23:43 | -4.24465 | 106.50803 | 31371 ft | 507 kts | 168° |
| 2026-05-05 23:43 | -4.27947 | 106.51457 | 30495 ft | 506 kts | 168° |
| 2026-05-05 23:43 | -4.31396 | 106.52104 | 29979 ft | 497 kts | 168° |
| 2026-05-05 23:44 | -4.34783 | 106.52739 | 29490 ft | 494 kts | 168° |
| 2026-05-05 23:44 | -4.38171 | 106.53374 | 28931 ft | 494 kts | 167° |
| 2026-05-05 23:44 | -4.41529 | 106.54004 | 28360 ft | 491 kts | 167° |
| 2026-05-05 23:44 | -4.44887 | 106.54633 | 27791 ft | 487 kts | 167° |
| 2026-05-05 23:45 | -4.48234 | 106.55260 | 27203 ft | 482 kts | 167° |
| 2026-05-05 23:45 | -4.51508 | 106.55874 | 26627 ft | 477 kts | 167° |
| 2026-05-05 23:45 | -4.54737 | 106.56478 | 26049 ft | 472 kts | 167° |
| 2026-05-05 23:45 | -4.57952 | 106.57080 | 25473 ft | 468 kts | 167° |
| 2026-05-05 23:46 | -4.61183 | 106.57686 | 24880 ft | 464 kts | 167° |
| 2026-05-05 23:46 | -4.64349 | 106.58279 | 24296 ft | 460 kts | 167° |
| 2026-05-05 23:46 | -4.67456 | 106.58861 | 23722 ft | 456 kts | 167° |
| 2026-05-05 23:46 | -4.70583 | 106.59447 | 23139 ft | 452 kts | 167° |
| 2026-05-05 23:47 | -4.73656 | 106.60023 | 22569 ft | 447 kts | 166° |
| 2026-05-05 23:47 | -4.76671 | 106.60586 | 22300 ft | 434 kts | 166° |
| 2026-05-05 23:47 | -4.79603 | 106.61134 | 22207 ft | 417 kts | 166° |
| 2026-05-05 23:47 | -4.82420 | 106.61659 | 22073 ft | 402 kts | 166° |
| 2026-05-05 23:48 | -4.85105 | 106.62188 | 21921 ft | 387 kts | 162° |
| 2026-05-05 23:48 | -4.87587 | 106.63057 | 21734 ft | 374 kts | 153° |
| 2026-05-05 23:48 | -4.90001 | 106.64133 | 21319 ft | 382 kts | 153° |
| 2026-05-05 23:48 | -4.92436 | 106.65237 | 20884 ft | 380 kts | 152° |
| 2026-05-05 23:49 | -4.94818 | 106.66320 | 20493 ft | 376 kts | 152° |
| 2026-05-05 23:49 | -4.97191 | 106.67400 | 20115 ft | 372 kts | 152° |
| 2026-05-05 23:49 | -4.99548 | 106.68474 | 19746 ft | 371 kts | 152° |
| 2026-05-05 23:49 | -5.01919 | 106.69555 | 19367 ft | 369 kts | 152° |
| 2026-05-05 23:50 | -5.04261 | 106.70624 | 18995 ft | 366 kts | 152° |
| 2026-05-05 23:50 | -5.06559 | 106.71673 | 18637 ft | 365 kts | 152° |
| 2026-05-05 23:50 | -5.08888 | 106.72737 | 18268 ft | 363 kts | 152° |
| 2026-05-05 23:50 | -5.11181 | 106.73785 | 17897 ft | 361 kts | 152° |
| 2026-05-05 23:51 | -5.13467 | 106.74829 | 17530 ft | 359 kts | 152° |
| 2026-05-05 23:51 | -5.15727 | 106.75861 | 17171 ft | 358 kts | 152° |
| 2026-05-05 23:51 | -5.18004 | 106.76902 | 16813 ft | 356 kts | 153° |
| 2026-05-05 23:51 | -5.20235 | 106.77913 | 16440 ft | 351 kts | 153° |
| 2026-05-05 23:52 | -5.22459 | 106.78918 | 16068 ft | 346 kts | 153° |
| 2026-05-05 23:52 | -5.24653 | 106.79909 | 15692 ft | 342 kts | 153° |
| 2026-05-05 23:52 | -5.26815 | 106.80887 | 15327 ft | 337 kts | 153° |
| 2026-05-05 23:52 | -5.28916 | 106.81838 | 14978 ft | 332 kts | 152° |
| 2026-05-05 23:53 | -5.31015 | 106.82787 | 14618 ft | 328 kts | 153° |
| 2026-05-05 23:53 | -5.33105 | 106.83733 | 14264 ft | 323 kts | 153° |
| 2026-05-05 23:53 | -5.35126 | 106.84649 | 13925 ft | 318 kts | 153° |
| 2026-05-05 23:53 | -5.37121 | 106.85552 | 13593 ft | 314 kts | 153° |
| 2026-05-05 23:54 | -5.39110 | 106.86453 | 13259 ft | 309 kts | 153° |
| 2026-05-05 23:54 | -5.41051 | 106.87333 | 12933 ft | 305 kts | 153° |
| 2026-05-05 23:54 | -5.42989 | 106.88211 | 12607 ft | 300 kts | 153° |
| 2026-05-05 23:54 | -5.44873 | 106.89066 | 12295 ft | 296 kts | 153° |
| 2026-05-05 23:55 | -5.46756 | 106.89866 | 12084 ft | 288 kts | 162° |
| 2026-05-05 23:55 | -5.48750 | 106.90128 | 12086 ft | 295 kts | 175° |
| 2026-05-05 23:55 | -5.50833 | 106.90142 | 12006 ft | 296 kts | 178° |
| 2026-05-05 23:55 | -5.52873 | 106.90107 | 11962 ft | 289 kts | 178° |
| 2026-05-05 23:56 | -5.54896 | 106.90073 | 11528 ft | 291 kts | 177° |
| 2026-05-05 23:56 | -5.56932 | 106.90041 | 11083 ft | 292 kts | 177° |
| 2026-05-05 23:56 | -5.58970 | 106.90009 | 10751 ft | 289 kts | 177° |
| 2026-05-05 23:56 | -5.60981 | 106.89980 | 10408 ft | 286 kts | 178° |
| 2026-05-05 23:57 | -5.62969 | 106.89950 | 10048 ft | 284 kts | 178° |
| 2026-05-05 23:57 | -5.64947 | 106.89921 | 9685 ft | 283 kts | 177° |
| 2026-05-05 23:57 | -5.66926 | 106.89892 | 9307 ft | 282 kts | 177° |
| 2026-05-05 23:57 | -5.68875 | 106.89863 | 8940 ft | 281 kts | 177° |
| 2026-05-05 23:58 | -5.70849 | 106.89834 | 8571 ft | 280 kts | 177° |
| 2026-05-05 23:58 | -5.72788 | 106.89803 | 8265 ft | 276 kts | 177° |
| 2026-05-05 23:58 | -5.74642 | 106.89761 | 8058 ft | 263 kts | 177° |
| 2026-05-05 23:58 | -5.76487 | 106.89722 | 7455 ft | 267 kts | 177° |
| 2026-05-05 23:59 | -5.78375 | 106.89683 | 6782 ft | 272 kts | 177° |
| 2026-05-05 23:59 | -5.80256 | 106.89642 | 6302 ft | 268 kts | 177° |
| 2026-05-05 23:59 | -5.82128 | 106.89602 | 5788 ft | 267 kts | 177° |
| 2026-05-05 23:59 | -5.83963 | 106.89563 | 5301 ft | 265 kts | 177° |
| 2026-05-06 00:00 | -5.85794 | 106.89524 | 4817 ft | 262 kts | 177° |
| 2026-05-06 00:00 | -5.87636 | 106.89484 | 4311 ft | 261 kts | 177° |
| 2026-05-06 00:00 | -5.89435 | 106.89447 | 3832 ft | 259 kts | 177° |
| 2026-05-06 00:00 | -5.91241 | 106.89408 | 3442 ft | 252 kts | 177° |
| 2026-05-06 00:01 | -5.92924 | 106.89370 | 3341 ft | 233 kts | 176° |
| 2026-05-06 00:01 | -5.94498 | 106.89336 | 3214 ft | 217 kts | 175° |
| 2026-05-06 00:01 | -5.95960 | 106.89116 | 3002 ft | 210 kts | 199° |
| 2026-05-06 00:01 | -5.97170 | 106.88350 | 2874 ft | 206 kts | 213° |
| 2026-05-06 00:02 | -5.98263 | 106.87434 | 2669 ft | 200 kts | 216° |
| 2026-05-06 00:02 | -5.99277 | 106.86550 | 2507 ft | 185 kts | 216° |
| 2026-05-06 00:02 | -6.00244 | 106.85711 | 2362 ft | 180 kts | 216° |
| 2026-05-06 00:02 | -6.01191 | 106.84891 | 2225 ft | 177 kts | 216° |
| 2026-05-06 00:03 | -6.02123 | 106.84084 | 2088 ft | 175 kts | 216° |
| 2026-05-06 00:03 | -6.03048 | 106.83290 | 1954 ft | 174 kts | 214° |
| 2026-05-06 00:03 | -6.03974 | 106.82504 | 1800 ft | 176 kts | 225° |
| 2026-05-06 00:03 | -6.04585 | 106.81445 | 1626 ft | 174 kts | 244° |
| 2026-05-06 00:04 | -6.05019 | 106.80322 | 1494 ft | 168 kts | 245° |
| 2026-05-06 00:04 | -6.05437 | 106.79258 | 1371 ft | 159 kts | 245° |
| 2026-05-06 00:04 | -6.05848 | 106.78240 | 1256 ft | 155 kts | 245° |
| 2026-05-06 00:04 | -6.06252 | 106.77235 | 1151 ft | 154 kts | 245° |
| 2026-05-06 00:05 | -6.07050 | 106.75250 | 934 ft | 152 kts | 245° |
| 2026-05-06 00:05 | -6.07444 | 106.74269 | 829 ft | 152 kts | 245° |
| 2026-05-06 00:05 | -6.07843 | 106.73285 | 728 ft | 150 kts | 245° |
| 2026-05-06 00:06 | -6.08245 | 106.72316 | 674 ft | 151 kts | 246° |
| 2026-05-06 00:06 | -6.08621 | 106.71332 | 631 ft | 150 kts | 246° |
| 2026-05-06 00:06 | -6.09012 | 106.70359 | 616 ft | 150 kts | 246° |
| 2026-05-06 00:06 | -6.09413 | 106.69402 | 560 ft | 151 kts | 245° |
| 2026-05-06 00:07 | -6.09811 | 106.68424 | 362 ft | 150 kts | 247° |
| 2026-05-06 00:07 | -6.10192 | 106.67464 | 193 ft | 145 kts | 247° |
| 2026-05-06 00:07 | -6.10566 | 106.66518 | 66 ft | 141 kts | 247° |
| 2026-05-06 00:07 | -6.10897 | 106.65697 | 53 ft | 109 kts | 250° |
| 2026-05-06 00:08 | -6.11122 | 106.65133 | 53 ft | 65 kts | 250° |
| 2026-05-06 00:08 | -6.11227 | 106.64908 | 53 ft | 29 kts | 230° |
| 2026-05-06 00:08 | -6.11314 | 106.64790 | 53 ft | 19 kts | 222° |
| 2026-05-06 00:08 | -6.11418 | 106.64718 | 53 ft | 17 kts | 197° |
| 2026-05-06 00:09 | -6.11533 | 106.64736 | 53 ft | 14 kts | 159° |
| 2026-05-06 00:09 | -6.11551 | 106.64774 | 53 ft | 7 kts | 81° |
| 2026-05-06 00:09 | -6.11530 | 106.64833 | 53 ft | 10 kts | 68° |
| 2026-05-06 00:09 | -6.11497 | 106.64914 | 53 ft | 14 kts | 68° |
| 2026-05-06 00:10 | -6.11455 | 106.65018 | 53 ft | 17 kts | 68° |
| 2026-05-06 00:10 | -6.11407 | 106.65139 | 53 ft | 19 kts | 68° |
| 2026-05-06 00:10 | -6.11353 | 106.65273 | 53 ft | 21 kts | 68° |
| 2026-05-06 00:10 | -6.11299 | 106.65411 | 53 ft | 18 kts | 68° |
| 2026-05-06 00:11 | -6.11254 | 106.65525 | 53 ft | 16 kts | 68° |
| 2026-05-06 00:11 | -6.11267 | 106.65611 | 53 ft | 13 kts | 137° |
| 2026-05-06 00:11 | -6.11347 | 106.65653 | 53 ft | 12 kts | 154° |
| 2026-05-06 00:11 | -6.11406 | 106.65711 | 53 ft | 11 kts | 114° |
| 2026-05-06 00:12 | -6.11426 | 106.65799 | 53 ft | 13 kts | 100° |
| 2026-05-06 00:12 | -6.11481 | 106.65875 | 53 ft | 14 kts | 147° |
| 2026-05-06 00:12 | -6.11576 | 106.65925 | 53 ft | 15 kts | 153° |
| 2026-05-06 00:12 | -6.11679 | 106.65971 | 53 ft | 16 kts | 157° |
| 2026-05-06 00:13 | -6.11785 | 106.66025 | 53 ft | 16 kts | 124° |
| 2026-05-06 00:13 | -6.11774 | 106.66138 | 53 ft | 14 kts | 72° |
| 2026-05-06 00:13 | -6.11770 | 106.66181 | 53 ft | 5 kts | 120° |
| 2026-05-06 00:13 | -6.11813 | 106.66214 | 53 ft | 9 kts | 152° |
| 2026-05-06 00:14 | -6.11841 | 106.66227 | 53 ft | 2 kts | 157° |
| 2026-05-06 00:14 | -6.11844 | 106.66228 | 53 ft | 1 kts | 157° |
| 2026-05-06 00:14 | -6.11846 | 106.66229 | 53 ft | 0 kts | 157° |